
Distance (Route):
Temperature : -53.5°C
Humidity : 3.8%
Pressure : 0hPa| Receiver | Frames | First received | Last received |
|---|---|---|---|
| DM0DOS-11 | 252 | 2026-09-01 00:13:59 | 2026-09-01 01:05:45 |
| DJ2DS-15 | 118 | 2026-09-01 00:21:40 | 2026-09-01 01:03:51 |
| BIOWL1-15 | 89 | 2026-09-01 00:26:09 | 2026-09-01 01:02:41 |
| DB0UT-7 | 36 | 2026-09-01 00:33:07 | 2026-09-01 01:00:27 |
| BIOWL9-15 | 16 | 2026-09-01 00:32:28 | 2026-09-01 01:03:00 |
| Receiver | Date | Latitude | Longitude | Direction | Speed | Altitude | Climb | Temperature | Humidity | Pressure | Voltage | Killtimer | Uptime | BKT | XDATA |
|---|---|---|---|---|---|---|---|---|---|---|---|---|---|---|---|
| DM0DOS-11 | 2026-09-01 01:05:45 | 53.12119 | -0.19943 | 84° | 57km/h | 15569m | -17.8m/s | -53.5°C | 3.8% | 0hPa | 2.5V | 08:20:18 | 02:15:25 | 00:00:00 | |
| DM0DOS-11 | 2026-09-01 01:05:34 | 53.12108 | -0.20168 | 84° | 49km/h | 15745m | -17.6m/s | -53.3°C | 3.8% | 0hPa | 2.5V | 08:20:28 | 02:15:15 | 00:00:00 | |
| DM0DOS-11 | 2026-09-01 01:05:23 | 53.12097 | -0.20381 | 83° | 49km/h | 15913m | -16.1m/s | -53.3°C | 3.9% | 0hPa | 2.5V | 08:20:38 | 02:15:05 | 00:00:00 | |
| DM0DOS-11 | 2026-09-01 01:05:12 | 53.12080 | -0.20597 | 88° | 53km/h | 16082m | -17.5m/s | -52.4°C | 3.7% | 0hPa | 2.6V | 08:20:48 | 02:14:55 | 00:00:00 | |
| DM0DOS-11 | 2026-09-01 01:05:05 | 53.12061 | -0.20809 | 71° | 55km/h | 16255m | -16.6m/s | -51.7°C | 3.5% | 0hPa | 2.6V | 08:20:58 | 02:14:45 | 00:00:00 | |
| DM0DOS-11 | 2026-09-01 01:04:52 | 53.12020 | -0.21031 | 76° | 55km/h | 16428m | -16.4m/s | -51.4°C | 3.6% | 0hPa | 2.6V | 08:21:08 | 02:14:35 | 00:00:00 | |
| DM0DOS-11 | 2026-09-01 01:04:45 | 53.11993 | -0.21233 | 78° | 42km/h | 16591m | -16.6m/s | -50.5°C | 3.3% | 0hPa | 2.6V | 08:21:18 | 02:14:25 | 00:00:00 | |
| DM0DOS-11 | 2026-09-01 01:04:32 | 53.11975 | -0.21391 | 78° | 31km/h | 16765m | -16.5m/s | -49.7°C | 3.1% | 0hPa | 2.5V | 08:21:28 | 02:14:15 | 00:00:00 | |
| DM0DOS-11 | 2026-09-01 01:04:26 | 53.11948 | -0.21529 | 67° | 42km/h | 16947m | -16.2m/s | -49.8°C | 3.1% | 0hPa | 2.5V | 08:21:38 | 02:14:05 | 00:00:00 | |
| DJ2DS-15 | 2026-09-01 01:03:51 | 53.11856 | -0.22102 | 82° | 46km/h | 17502m | -20.2m/s | -50.8°C | 0.8% | -1.0hPa | 2.5V | 00:00:00 | 00:00:00 | 00:00:00 | |
| DJ2DS-15 | 2026-09-01 01:03:47 | 53.11851 | -0.22177 | 88° | 37km/h | 17575m | -20.1m/s | -50.9°C | 3.3% | 0hPa | 2.5V | 08:22:00 | 02:13:32 | 00:00:00 | |
| DJ2DS-15 | 2026-09-01 01:03:26 | 53.11822 | -0.22493 | 71° | 33km/h | 17972m | -20.1m/s | -50.7°C | 3.3% | 0hPa | 2.5V | 00:00:00 | 02:13:11 | 00:00:00 | |
| DM0DOS-11 | 2026-09-01 01:03:19 | 53.11804 | -0.22633 | 80° | 37km/h | 18144m | -19.8m/s | -50.5°C | 3.3% | 0hPa | 2.5V | 08:22:41 | 02:13:02 | 00:00:00 | |
| DJ2DS-15 | 2026-09-01 01:03:15 | 53.11802 | -0.22660 | 84° | 33km/h | 18182m | -20.1m/s | -50.3°C | 0.8% | -1.0hPa | 2.5V | 00:00:00 | 00:00:00 | 00:00:00 | |
| DM0DOS-11 | 2026-09-01 01:03:08 | 53.11796 | -0.22770 | 92° | 27km/h | 18366m | -21.1m/s | -50.7°C | 3.3% | 0hPa | 2.5V | 08:22:52 | 02:12:51 | 00:00:00 | |
| DJ2DS-15 | 2026-09-01 01:03:06 | 53.11796 | -0.22770 | 93° | 27km/h | 18366m | -21.0m/s | -50.7°C | 3.3% | 0hPa | 2.5V | 00:00:00 | 02:12:51 | 00:00:00 | |
| BIOWL9-15 | 2026-09-01 01:03:00 | 53.11776 | -0.22969 | 76° | 29km/h | 18733m | -20.2m/s | -50.5°C | 0.8% | -1.0hPa | 2.5V | 00:00:00 | 00:00:00 | 00:00:00 | |
| DM0DOS-11 | 2026-09-01 01:02:58 | 53.11793 | -0.22876 | 76° | 27km/h | 18570m | -19.1m/s | -50.4°C | 3.2% | 0hPa | 2.5V | 08:23:02 | 02:12:41 | 00:00:00 | |
| DM0DOS-11 | 2026-09-01 01:02:48 | 53.11771 | -0.22995 | 75° | 31km/h | 18772m | -20.8m/s | -50.5°C | 3.3% | 0hPa | 2.6V | 08:23:12 | 02:12:31 | 00:00:00 | |
| BIOWL1-15 | 2026-09-01 01:02:41 | 53.11759 | -0.23079 | 75° | 29km/h | 18911m | -20m/s | -50.4°C | 0% | 0hPa | 2.5V | 08:23:58 | 02:12:24 | 00:00:00 | |
| DJ2DS-15 | 2026-09-01 01:02:39 | 53.11759 | -0.23079 | 74° | 27km/h | 18911m | -20.0m/s | -50.4°C | 0.8% | -1.0hPa | 2.6V | 00:00:00 | 00:00:00 | 00:00:00 | |
| DM0DOS-11 | 2026-09-01 01:02:38 | 53.11754 | -0.23109 | 66° | 22km/h | 18973m | -23.1m/s | -50°C | 3.1% | 0hPa | 2.6V | 08:23:22 | 02:12:21 | 00:00:00 | |
| BIOWL1-15 | 2026-09-01 01:02:29 | 53.11739 | -0.23165 | 63° | 22km/h | 19128m | -24.1m/s | -50.7°C | 0% | 0hPa | 2.5V | 08:23:58 | 02:12:14 | 00:00:00 | |
| BIOWL1-15 | 2026-09-01 01:02:19 | 53.11679 | -0.23368 | 66° | 42km/h | 19479m | -21.4m/s | -50.9°C | 0% | 0hPa | 2.5V | 08:23:58 | 02:11:58 | 00:00:00 | |
| BIOWL1-15 | 2026-09-01 01:02:08 | 53.11663 | -0.23443 | 70° | 37km/h | 19584m | -23m/s | -50.3°C | 0% | 0hPa | 2.5V | 08:23:58 | 02:11:53 | 00:00:00 | |
| DJ2DS-15 | 2026-09-01 01:02:06 | 53.11657 | -0.23469 | 72° | 27km/h | 19632m | -22.7m/s | -50.2°C | 3.2% | 0hPa | 2.5V | 00:00:00 | 02:11:51 | 00:00:00 | |
| DM0DOS-11 | 2026-09-01 01:02:00 | 53.11625 | -0.23579 | 64° | 27km/h | 19854m | -23.9m/s | -50.6°C | 3.3% | 0hPa | 2.5V | 08:24:02 | 02:11:41 | 00:00:00 | |
| BIOWL1-15 | 2026-09-01 01:01:57 | 53.11620 | -0.23601 | 69° | 29km/h | 19901m | -24.2m/s | 0°C | 0% | 0hPa | 2.5V | 18:12:15 | 02:11:39 | 00:00:00 | |
| DM0DOS-11 | 2026-09-01 01:01:50 | 53.11601 | -0.23693 | 65° | 22km/h | 20100m | -21.4m/s | -50.7°C | 3.3% | 0hPa | 2.5V | 08:24:13 | 02:11:30 | 00:00:00 | |
| DJ2DS-15 | 2026-09-01 01:01:46 | 53.11603 | -0.23685 | 70° | 20km/h | 20078m | -22.1m/s | -50.6°C | 3.3% | 0hPa | 2.5V | 00:00:00 | 02:11:31 | 00:00:00 | |
| DM0DOS-11 | 2026-09-01 01:01:40 | 53.11570 | -0.23742 | 32° | 18km/h | 20327m | -21.5m/s | -50.6°C | 3.1% | 0hPa | 2.6V | 08:24:23 | 02:11:20 | 00:00:00 | |
| DM0DOS-11 | 2026-09-01 01:01:30 | 53.11536 | -0.23813 | 70° | 26km/h | 20547m | -21.6m/s | -50.9°C | 3.2% | 0hPa | 2.6V | 08:24:33 | 02:11:10 | 00:00:00 | |
| DJ2DS-15 | 2026-09-01 01:01:27 | 53.11539 | -0.23804 | 63° | 24km/h | 20524m | -23.2m/s | -50.9°C | 0.7% | -1.0hPa | 2.5V | 00:00:00 | 00:00:00 | 00:00:00 | |
| DJ2DS-15 | 2026-09-01 01:01:26 | 53.11539 | -0.23803 | 64° | 26km/h | 20525m | -23.1m/s | -50.8°C | 3.2% | 0hPa | 2.5V | 00:00:00 | 02:11:11 | 00:00:00 | |
| DM0DOS-11 | 2026-09-01 01:01:20 | 53.11524 | -0.23929 | 85° | 29km/h | 20768m | -21.9m/s | -52°C | 3.5% | 0hPa | 2.5V | 08:24:43 | 02:11:00 | 00:00:00 | |
| DM0DOS-11 | 2026-09-01 01:01:10 | 53.11519 | -0.24016 | 61° | 15km/h | 21005m | -22.6m/s | -51.3°C | 3.3% | 0hPa | 2.5V | 08:24:53 | 02:10:50 | 00:00:00 | |
| DJ2DS-15 | 2026-09-01 01:01:06 | 53.11520 | -0.24011 | 64° | 24km/h | 20981m | -25.5m/s | -51.2°C | 3.3% | 0hPa | 2.5V | 00:00:00 | 02:10:51 | 00:00:00 | |
| DM0DOS-11 | 2026-09-01 01:00:50 | 53.11452 | -0.24124 | 59° | 27km/h | 21366m | -20.4m/s | -52.3°C | 3.6% | 0hPa | 2.5V | 08:25:09 | 02:10:34 | 00:00:00 | |
| DJ2DS-15 | 2026-09-01 01:00:46 | 53.11444 | -0.24158 | 71° | 18km/h | 21434m | -24.5m/s | -52.3°C | 3.6% | 0hPa | 2.6V | 08:25:00 | 02:10:31 | 00:00:00 | |
| DM0DOS-11 | 2026-09-01 01:00:40 | 53.11439 | -0.24235 | 91° | 24km/h | 21598m | -23.2m/s | -52.4°C | 3.7% | 0hPa | 2.6V | 08:25:19 | 02:10:24 | 00:00:00 | |
| BIOWL1-15 | 2026-09-01 01:00:36 | 53.11445 | -0.24283 | 19° | 11km/h | 22178m | -26m/s | -51.6°C | 0% | 0hPa | 2.5V | 08:27:22 | 02:09:59 | 00:00:00 | |
| DM0DOS-11 | 2026-09-01 01:00:34 | 53.11448 | -0.24299 | 155° | 5km/h | 21847m | -24.3m/s | -51.9°C | 3.6% | 0hPa | 2.6V | 08:25:30 | 02:10:13 | 00:00:00 | |
| DB0UT-7 | 2026-09-01 01:00:27 | 53.11449 | -0.24300 | 163° | 13km/h | 21872m | -24.3m/s | -51.7°C | 3.5% | 0hPa | 2.6V | 00:00:00 | 02:10:12 | 00:00:00 | |
| DJ2DS-15 | 2026-09-01 01:00:26 | 53.11451 | -0.24300 | 204° | 11km/h | 21896m | -23.5m/s | -51.4°C | 3.4% | 0hPa | 2.6V | 00:00:00 | 02:10:11 | 00:00:00 | |
| DM0DOS-11 | 2026-09-01 01:00:23 | 53.11450 | -0.24283 | 341° | 5km/h | 22106m | -22.2m/s | -51.8°C | 3.6% | 0hPa | 2.6V | 08:25:41 | 02:10:02 | 00:00:00 | |
| BIOWL1-15 | 2026-09-01 01:00:13 | 53.11425 | -0.24301 | 35° | 20km/h | 22332m | -24.3m/s | -51.9°C | 0.1% | 0hPa | 2.5V | 08:27:22 | 02:09:53 | 00:00:00 | |
| DM0DOS-11 | 2026-09-01 01:00:12 | 53.11425 | -0.24301 | 35° | 20km/h | 22332m | -24.2m/s | -51.9°C | 3.6% | 0hPa | 2.5V | 08:25:50 | 02:09:53 | 00:00:00 | |
| DJ2DS-15 | 2026-09-01 01:00:06 | 53.11416 | -0.24311 | 40° | 15km/h | 22375m | -21.1m/s | -51.9°C | 3.6% | 0hPa | 2.6V | 00:00:00 | 02:09:51 | 00:00:00 | |
| DM0DOS-11 | 2026-09-01 01:00:02 | 53.11390 | -0.24366 | 67° | 16km/h | 22577m | -22.8m/s | -51.3°C | 3.5% | 0hPa | 2.6V | 08:26:00 | 02:09:43 | 00:00:00 | |
| BIOWL1-15 | 2026-09-01 00:59:58 | 53.11386 | -0.24401 | 79° | 9km/h | 22731m | -23.5m/s | -51.1°C | 0% | 0hPa | 2.5V | 08:27:22 | 02:09:36 | 00:00:00 | |
| BIOWL9-15 | 2026-09-01 00:59:54 | 53.11387 | -0.24389 | 80° | 13km/h | 22666m | -20.6m/s | -51.3°C | 0.7% | -1.0hPa | 2.6V | 00:00:00 | 00:00:00 | 00:00:00 | |
| DM0DOS-11 | 2026-09-01 00:59:51 | 53.11380 | -0.24413 | 40° | 5km/h | 22830m | -24.5m/s | -50.9°C | 3.4% | 0hPa | 2.6V | 08:26:11 | 02:09:32 | 00:00:00 | |
| BIOWL1-15 | 2026-09-01 00:59:43 | 53.11371 | -0.24422 | 25° | 13km/h | 22920m | -21.7m/s | -50.7°C | 0% | 0hPa | 2.5V | 08:27:22 | 02:09:28 | 00:00:00 | |
| DM0DOS-11 | 2026-09-01 00:59:40 | 53.11355 | -0.24438 | 44° | 13km/h | 23067m | -26.8m/s | -50.8°C | 3.3% | 0hPa | 2.5V | 08:26:21 | 02:09:22 | 00:00:00 | |
| DM0DOS-11 | 2026-09-01 00:59:30 | 53.11357 | -0.24479 | 126° | 13km/h | 23284m | -20.8m/s | -50.1°C | 3.2% | 0hPa | 2.5V | 08:26:31 | 02:09:12 | 00:00:00 | |
| DB0UT-7 | 2026-09-01 00:59:27 | 53.11356 | -0.24479 | 127° | 9km/h | 23284m | -20.7m/s | -50.1°C | 3.2% | 0hPa | 2.6V | 00:00:00 | 02:09:12 | 00:00:00 | |
| DJ2DS-15 | 2026-09-01 00:59:26 | 53.11358 | -0.24484 | 129° | 13km/h | 23306m | -21.5m/s | -50.1°C | 3.2% | 0hPa | 2.6V | 00:00:00 | 02:09:11 | 00:00:00 | |
| DM0DOS-11 | 2026-09-01 00:59:20 | 53.11370 | -0.24543 | 106° | 13km/h | 23500m | -20.8m/s | -50.6°C | 3.3% | 0hPa | 2.6V | 08:26:41 | 02:09:02 | 00:00:00 | |
| DM0DOS-11 | 2026-09-01 00:59:10 | 53.11384 | -0.24581 | 102° | 4km/h | 23679m | -19.1m/s | -50.6°C | 3.3% | 0hPa | 2.6V | 08:26:51 | 02:08:52 | 00:00:00 | |
| DJ2DS-15 | 2026-09-01 00:59:06 | 53.11384 | -0.24582 | 167° | 5km/h | 23700m | -22.9m/s | -50.5°C | 3.3% | 0hPa | 2.5V | 00:00:00 | 02:08:51 | 00:00:00 | |
| DJ2DS-15 | 2026-09-01 00:59:02 | 53.11388 | -0.24577 | 250° | 5km/h | 23797m | -23.3m/s | -50.6°C | 0.7% | -1.0hPa | 2.5V | 00:00:00 | 00:00:00 | 00:00:00 | |
| DM0DOS-11 | 2026-09-01 00:59:00 | 53.11391 | -0.24570 | 227° | 2km/h | 23912m | -17.9m/s | -50.7°C | 3.3% | 0hPa | 2.5V | 08:27:02 | 02:08:41 | 00:00:00 | |
| BIOWL1-15 | 2026-09-01 00:58:56 | 53.11391 | -0.24570 | 227° | 2km/h | 23912m | -17.9m/s | -50.7°C | 0% | 0hPa | 2.5V | 08:27:22 | 02:08:41 | 00:00:00 | |
| BIOWL9-15 | 2026-09-01 00:58:52 | 53.11392 | -0.24567 | 256° | 0km/h | 23985m | -17.5m/s | -50.6°C | 0.7% | -1.0hPa | 2.5V | 00:00:00 | 00:00:00 | 00:00:00 | |
| DM0DOS-11 | 2026-09-01 00:58:50 | 53.11389 | -0.24549 | 303° | 16km/h | 24093m | -16.9m/s | -50.2°C | 3.3% | 0hPa | 2.5V | 08:27:12 | 02:08:31 | 00:00:00 | |
| BIOWL1-15 | 2026-09-01 00:58:46 | 53.11367 | -0.24515 | 352° | 11km/h | 24266m | -19.5m/s | 0°C | 0% | 0hPa | 2.6V | 08:27:22 | 02:08:22 | 00:00:00 | |
| DJ2DS-15 | 2026-09-01 00:58:46 | 53.11389 | -0.24549 | 304° | 11km/h | 24094m | -16.8m/s | -50.2°C | 3.3% | 0hPa | 2.5V | 00:00:00 | 02:08:31 | 00:00:00 | |
| DM0DOS-11 | 2026-09-01 00:58:39 | 53.11364 | -0.24514 | 347° | 9km/h | 24286m | -20m/s | -50°C | 3.2% | 0hPa | 2.6V | 08:27:22 | 02:08:21 | 00:00:00 | |
| BIOWL1-15 | 2026-09-01 00:58:34 | 53.11360 | -0.24512 | 348° | 11km/h | 24324m | -17.9m/s | 0°C | 0% | 0hPa | 2.5V | 18:12:15 | 02:08:19 | 00:00:00 | |
| DM0DOS-11 | 2026-09-01 00:58:29 | 53.11358 | -0.24499 | 239° | 9km/h | 24500m | -19.7m/s | -49.9°C | 3.1% | 0hPa | 2.5V | 08:27:32 | 02:08:11 | 00:00:00 | |
| BIOWL1-15 | 2026-09-01 00:58:24 | 53.11360 | -0.24491 | 263° | 9km/h | 24539m | -21.4m/s | 0°C | 0% | 0hPa | 2.6V | 18:12:15 | 02:08:09 | 00:00:00 | |
| BIOWL9-15 | 2026-09-01 00:58:21 | 53.11358 | -0.24474 | 304° | 11km/h | 24637m | -18.8m/s | -50.2°C | 0.7% | -1.0hPa | 2.5V | 00:00:00 | 00:00:00 | 00:00:00 | |
| DM0DOS-11 | 2026-09-01 00:58:19 | 53.11351 | -0.24460 | 317° | 16km/h | 24693m | -17.9m/s | -50.2°C | 3.2% | 0hPa | 2.5V | 08:27:42 | 02:08:01 | 00:00:00 | |
| DM0DOS-11 | 2026-09-01 00:58:09 | 53.11335 | -0.24428 | 315° | 5km/h | 24879m | -25.1m/s | -50.3°C | 3.3% | 0hPa | 2.6V | 08:27:52 | 02:07:51 | 00:00:00 | |
| DB0UT-7 | 2026-09-01 00:58:07 | 53.11336 | -0.24429 | 287° | 11km/h | 24856m | -22.2m/s | -50.2°C | 3.3% | 0hPa | 2.6V | 00:00:00 | 02:07:52 | 00:00:00 | |
| DJ2DS-15 | 2026-09-01 00:58:06 | 53.11335 | -0.24427 | 316° | 7km/h | 24880m | -25.1m/s | -50.3°C | 3.3% | 0hPa | 2.5V | 00:00:00 | 02:07:51 | 00:00:00 | |
| DM0DOS-11 | 2026-09-01 00:57:58 | 53.11329 | -0.24415 | 335° | 5km/h | 25112m | -30.6m/s | -50.1°C | 3.2% | 0hPa | 2.5V | 08:28:02 | 02:07:41 | 00:00:00 | |
| DM0DOS-11 | 2026-09-01 00:57:51 | 53.11296 | -0.24421 | 24° | 18km/h | 25389m | -20.1m/s | -49.8°C | 3.2% | 0hPa | 2.5V | 08:28:13 | 02:07:30 | 00:00:00 | |
| DJ2DS-15 | 2026-09-01 00:57:46 | 53.11301 | -0.24418 | 21° | 18km/h | 25369m | -20.9m/s | -49.8°C | 3.3% | 0hPa | 2.5V | 08:28:00 | 02:07:31 | 00:00:00 | |
| DM0DOS-11 | 2026-09-01 00:57:40 | 53.11268 | -0.24451 | 66° | 13km/h | 25608m | -25.4m/s | -49.3°C | 3% | 0hPa | 2.5V | 08:28:23 | 02:07:20 | 00:00:00 | |
| DB0UT-7 | 2026-09-01 00:57:37 | 53.11272 | -0.24445 | 26° | 11km/h | 25567m | -19.4m/s | -49.2°C | 3.0% | 0hPa | 2.6V | 00:00:00 | 00:00:00 | 00:00:00 | |
| DM0DOS-11 | 2026-09-01 00:57:30 | 53.11277 | -0.24534 | 120° | 16km/h | 25789m | -12.4m/s | -50.4°C | 3.4% | 0hPa | 2.6V | 08:28:33 | 02:07:10 | 00:00:00 | |
| DJ2DS-15 | 2026-09-01 00:57:26 | 53.11275 | -0.24528 | 119° | 7km/h | 25776m | -13.4m/s | -50.3°C | 3.4% | 0hPa | 2.5V | 00:00:00 | 02:07:11 | 00:00:00 | |
| DM0DOS-11 | 2026-09-01 00:57:19 | 53.11286 | -0.24556 | 19° | 4km/h | 25931m | -14.2m/s | -50°C | 3.4% | 0hPa | 2.5V | 08:28:43 | 02:07:00 | 00:00:00 | |
| DJ2DS-15 | 2026-09-01 00:57:14 | 53.11284 | -0.24557 | 352° | 2km/h | 25945m | -12.5m/s | -50.0°C | 0.7% | -1.0hPa | 2.6V | 00:00:00 | 00:00:00 | 00:00:00 | |
| BIOWL1-15 | 2026-09-01 00:56:54 | 53.11306 | -0.24524 | 242° | 15km/h | 26342m | -28.7m/s | -48.6°C | 0% | 0hPa | 2.6V | 08:29:04 | 02:06:39 | 00:00:00 | |
| DM0DOS-11 | 2026-09-01 00:56:53 | 53.11313 | -0.24505 | 248° | 9km/h | 26453m | -31.2m/s | -48.2°C | 2.9% | 0hPa | 2.5V | 08:29:08 | 02:06:35 | 00:00:00 | |
| BIOWL1-15 | 2026-09-01 00:56:44 | 53.11315 | -0.24483 | 284° | 7km/h | 26649m | -34.4m/s | -48.1°C | 0% | 0hPa | 2.5V | 18:12:15 | 02:06:29 | 00:00:00 | |
| DM0DOS-11 | 2026-09-01 00:56:42 | 53.11313 | -0.24471 | 315° | 7km/h | 26770m | -25.4m/s | -48.7°C | 3% | 0hPa | 2.5V | 08:29:18 | 02:06:25 | 00:00:00 | |
| BIOWL1-15 | 2026-09-01 00:56:34 | 53.11300 | -0.24457 | 350° | 7km/h | 26959m | -27.3m/s | -49.1°C | 0% | 0hPa | 2.5V | 18:12:15 | 02:06:18 | 00:00:00 | |
| DM0DOS-11 | 2026-09-01 00:56:32 | 53.11293 | -0.24458 | 12° | 5km/h | 27049m | -30.6m/s | -48.9°C | 3.1% | 0hPa | 2.6V | 08:29:28 | 02:06:15 | 00:00:00 | |
| DJ2DS-15 | 2026-09-01 00:56:26 | 53.11286 | -0.24464 | 44° | 11km/h | 27167m | -25.6m/s | -49.3°C | 3.3% | 0hPa | 2.6V | 00:00:00 | 02:06:11 | 00:00:00 | |
| DM0DOS-11 | 2026-09-01 00:56:22 | 53.11283 | -0.24465 | 252° | 5km/h | 27331m | -30.2m/s | -49.4°C | 3.2% | 0hPa | 2.6V | 08:29:38 | 02:06:05 | 00:00:00 | |
| BIOWL1-15 | 2026-09-01 00:56:18 | 53.11287 | -0.24450 | 248° | 15km/h | 27458m | -30.4m/s | -49.4°C | 0% | 0hPa | 2.5V | 18:12:15 | 02:06:01 | 00:00:00 | |
| BIOWL9-15 | 2026-09-01 00:56:17 | 53.11287 | -0.24450 | 247° | 13km/h | 27458m | -30.4m/s | -49.4°C | 0.7% | -1.0hPa | 2.5V | 00:00:00 | 00:00:00 | 00:00:00 | |
| DM0DOS-11 | 2026-09-01 00:56:11 | 53.11293 | -0.24415 | 266° | 16km/h | 27637m | -28.4m/s | -48.7°C | 3.2% | 0hPa | 2.5V | 08:29:48 | 02:05:55 | 00:00:00 | |
| BIOWL1-15 | 2026-09-01 00:56:07 | 53.11288 | -0.24390 | 317° | 16km/h | 27744m | -27.3m/s | 0°C | 0% | 0hPa | 2.5V | 18:12:15 | 02:05:51 | 00:00:00 | |
| DJ2DS-15 | 2026-09-01 00:56:06 | 53.11288 | -0.24390 | 317° | 18km/h | 27745m | -27.3m/s | -48.5°C | 3.2% | 0hPa | 2.5V | 00:00:00 | 02:05:51 | 00:00:00 | |
| DM0DOS-11 | 2026-09-01 00:56:01 | 53.11255 | -0.24385 | 18° | 27km/h | 27905m | -28.4m/s | -48.5°C | 3.1% | 0hPa | 2.5V | 08:30:00 | 02:05:45 | 00:00:00 | |
| DM0DOS-11 | 2026-09-01 00:55:56 | 53.11222 | -0.24391 | 259° | 11km/h | 28182m | -28.7m/s | -47.5°C | 2.9% | 0hPa | 2.6V | 08:30:00 | 02:05:35 | 00:00:00 | |
| DM0DOS-11 | 2026-09-01 00:55:45 | 53.11237 | -0.24353 | 220° | 13km/h | 28546m | -39.5m/s | -47.3°C | 2.7% | 0hPa | 2.6V | 08:30:00 | 02:05:25 | 00:00:00 | |
| DB0UT-7 | 2026-09-01 00:55:37 | 53.11243 | -0.24344 | 226° | 11km/h | 28659m | -36.9m/s | -47.6°C | 2.8% | 0hPa | 2.5V | 00:00:00 | 00:00:00 | 00:00:00 | |
| DM0DOS-11 | 2026-09-01 00:55:30 | 53.11248 | -0.24325 | 325° | 5km/h | 28880m | -19.7m/s | -48°C | 3% | 0hPa | 2.5V | 08:30:00 | 02:05:15 | 00:00:00 | |
| BIOWL1-15 | 2026-09-01 00:55:30 | 53.11248 | -0.24325 | 325° | 5km/h | 28880m | -19.7m/s | 0°C | 0% | 0hPa | 2.5V | 18:12:15 | 02:05:15 | 00:00:00 | |
| DJ2DS-15 | 2026-09-01 00:55:26 | 53.11243 | -0.24321 | 360° | 13km/h | 28894m | 6.2m/s | -48.1°C | 3.0% | 0hPa | 2.5V | 00:00:00 | 02:05:11 | 00:00:00 | |
| DM0DOS-11 | 2026-09-01 00:55:25 | 53.11237 | -0.24298 | 258° | 18km/h | 28861m | 5.8m/s | -48.1°C | 3% | 0hPa | 2.5V | 08:30:00 | 02:05:05 | 00:00:00 | |
| BIOWL1-15 | 2026-09-01 00:55:19 | 53.11238 | -0.24291 | 250° | 16km/h | 28855m | 6.1m/s | 0°C | 0% | 0hPa | 2.5V | 18:12:15 | 02:05:04 | 00:00:00 | |
| DM0DOS-11 | 2026-09-01 00:55:15 | 53.11246 | -0.24249 | 238° | 7km/h | 28805m | 5.5m/s | -47.9°C | 3% | 0hPa | 2.5V | 08:30:00 | 02:04:55 | 00:00:00 | |
| BIOWL1-15 | 2026-09-01 00:55:07 | 53.11252 | -0.24235 | 235° | 20km/h | 28787m | 4.7m/s | 0°C | 0% | 0hPa | 2.5V | 18:12:15 | 02:04:52 | 00:00:00 | |
| DB0UT-7 | 2026-09-01 00:55:07 | 53.11252 | -0.24235 | 236° | 13km/h | 28788m | 4.7m/s | -47.9°C | 3.0% | 0hPa | 2.5V | 00:00:00 | 02:04:52 | 00:00:00 | |
| DJ2DS-15 | 2026-09-01 00:55:06 | 53.11255 | -0.24228 | 232° | 11km/h | 28783m | 4.0m/s | -48.0°C | 3.0% | 0hPa | 2.6V | 00:00:00 | 02:04:51 | 00:00:00 | |
| DM0DOS-11 | 2026-09-01 00:55:04 | 53.11266 | -0.24208 | 275° | 7km/h | 28748m | 6.2m/s | -48.1°C | 3% | 0hPa | 2.6V | 08:30:00 | 02:04:45 | 00:00:00 | |
| BIOWL1-15 | 2026-09-01 00:54:59 | 53.11266 | -0.24199 | 242° | 7km/h | 28731m | 6.6m/s | 0°C | 0% | 0hPa | 2.5V | 18:12:15 | 02:04:42 | 00:00:00 | |
| DM0DOS-11 | 2026-09-01 00:54:54 | 53.11284 | -0.24166 | 233° | 15km/h | 28691m | 6.4m/s | -48.1°C | 3% | 0hPa | 2.5V | 08:30:00 | 02:04:35 | 00:00:00 | |
| DJ2DS-15 | 2026-09-01 00:54:50 | 53.11284 | -0.24166 | 233° | 13km/h | 28692m | 6.4m/s | -48.1°C | 0.6% | -1.0hPa | 2.5V | 00:00:00 | 00:00:00 | 00:00:00 | |
| DJ2DS-15 | 2026-09-01 00:54:46 | 53.11290 | -0.24155 | 243° | 11km/h | 28668m | 6.2m/s | -48.0°C | 3.0% | 0hPa | 2.5V | 00:00:00 | 02:04:31 | 08:30:00 | |
| DM0DOS-11 | 2026-09-01 00:54:44 | 53.11303 | -0.24138 | 208° | 18km/h | 28633m | 6.5m/s | -47.9°C | 3% | 0hPa | 2.5V | 08:30:00 | 02:04:25 | 00:00:00 | |
| DB0UT-7 | 2026-09-01 00:54:35 | 53.11323 | -0.24120 | 186° | 11km/h | 28604m | 5.0m/s | -47.8°C | 3.0% | 0hPa | 2.6V | 00:00:00 | 00:00:00 | 00:00:00 | |
| DM0DOS-11 | 2026-09-01 00:54:33 | 53.11327 | -0.24113 | 291° | 5km/h | 28576m | 4.9m/s | -47.7°C | 2.9% | 0hPa | 2.6V | 08:30:00 | 02:04:15 | 00:00:00 | |
| DJ2DS-15 | 2026-09-01 00:54:26 | 53.11330 | -0.24112 | 174° | 13km/h | 28553m | 5.6m/s | -47.6°C | 2.9% | 0hPa | 2.6V | 00:00:00 | 02:04:11 | 00:00:00 | |
| DM0DOS-11 | 2026-09-01 00:54:23 | 53.11359 | -0.24096 | 196° | 20km/h | 28516m | 5.2m/s | -47.7°C | 2.9% | 0hPa | 2.6V | 08:30:00 | 02:04:05 | 00:00:00 | |
| DJ2DS-15 | 2026-09-01 00:54:14 | 53.11365 | -0.24087 | 52° | 5km/h | 28474m | 5.3m/s | -47.8°C | 0.6% | -1.0hPa | 2.5V | 00:00:00 | 00:00:00 | 00:00:00 | |
| DM0DOS-11 | 2026-09-01 00:54:11 | 53.11365 | -0.24088 | 201° | 7km/h | 28456m | 5.4m/s | -47.9°C | 3% | 0hPa | 2.5V | 08:30:00 | 02:03:55 | 00:00:00 | |
| DJ2DS-15 | 2026-09-01 00:54:06 | 53.11380 | -0.24083 | 202° | 9km/h | 28432m | 6.2m/s | -47.8°C | 3.0% | 0hPa | 2.5V | 00:00:00 | 02:03:51 | 00:00:00 | |
| DB0UT-7 | 2026-09-01 00:54:05 | 53.11384 | -0.24079 | 215° | 9km/h | 28426m | 6.0m/s | -47.8°C | 3.0% | 0hPa | 2.5V | 00:00:00 | 02:03:50 | 00:00:00 | |
| DM0DOS-11 | 2026-09-01 00:54:04 | 53.11393 | -0.24066 | 66° | 4km/h | 28397m | 5.4m/s | -47.7°C | 2.9% | 0hPa | 2.5V | 08:30:00 | 02:03:45 | 00:00:00 | |
| DM0DOS-11 | 2026-09-01 00:53:51 | 53.11398 | -0.24073 | 223° | 9km/h | 28337m | 5.8m/s | -47.8°C | 2.9% | 0hPa | 2.5V | 08:30:00 | 02:03:35 | 00:00:00 | |
| DJ2DS-15 | 2026-09-01 00:53:46 | 53.11399 | -0.24062 | 332° | 11km/h | 28314m | 5.8m/s | -47.9°C | 3.0% | 0hPa | 2.6V | 00:00:00 | 02:03:31 | 00:00:00 | |
| DM0DOS-11 | 2026-09-01 00:53:44 | 53.11376 | -0.24067 | 9° | 18km/h | 28279m | 5.7m/s | -48.1°C | 3% | 0hPa | 2.6V | 08:30:00 | 02:03:25 | 00:00:00 | |
| DJ2DS-15 | 2026-09-01 00:53:38 | 53.11369 | -0.24073 | 57° | 4km/h | 28260m | 5.3m/s | -48.1°C | 0.6% | -1.0hPa | 2.6V | 00:00:00 | 00:00:00 | 00:00:00 | |
| DB0UT-7 | 2026-09-01 00:53:35 | 53.11368 | -0.24073 | 299° | 11km/h | 28249m | 6.5m/s | -48.0°C | 3.1% | 0hPa | 2.6V | 00:00:00 | 00:00:00 | 00:00:00 | |
| DM0DOS-11 | 2026-09-01 00:53:34 | 53.11362 | -0.24064 | 29° | 7km/h | 28219m | 5.6m/s | -47.8°C | 3% | 0hPa | 2.6V | 08:30:00 | 02:03:15 | 00:00:00 | |
| DJ2DS-15 | 2026-09-01 00:53:26 | 53.11348 | -0.24074 | 15° | 13km/h | 28196m | 4.8m/s | -47.6°C | 2.9% | 0hPa | 2.5V | 00:00:00 | 02:03:11 | 00:00:00 | |
| DM0DOS-11 | 2026-09-01 00:53:22 | 53.11336 | -0.24078 | 340° | 11km/h | 28160m | 6.5m/s | -47.5°C | 2.9% | 0hPa | 2.5V | 08:30:00 | 02:03:05 | 00:00:00 | |
| DM0DOS-11 | 2026-09-01 00:53:12 | 53.11293 | -0.24083 | 16° | 13km/h | 28099m | 6.3m/s | -47.8°C | 2.9% | 0hPa | 2.5V | 08:30:00 | 02:02:55 | 00:00:00 | |
| DJ2DS-15 | 2026-09-01 00:53:06 | 53.11283 | -0.24081 | 339° | 22km/h | 28076m | 5.8m/s | -47.9°C | 2.9% | 0hPa | 2.6V | 00:00:00 | 02:02:51 | 00:00:00 | |
| DB0UT-7 | 2026-09-01 00:53:05 | 53.11279 | -0.24079 | 344° | 20km/h | 28071m | 5.0m/s | -48.0°C | 3.0% | 0hPa | 2.6V | 00:00:00 | 02:02:50 | 00:00:00 | |
| DM0DOS-11 | 2026-09-01 00:53:01 | 53.11255 | -0.24088 | 27° | 27km/h | 28041m | 5.9m/s | -48.1°C | 2.9% | 0hPa | 2.6V | 08:30:00 | 02:02:45 | 00:00:00 | |
| DM0DOS-11 | 2026-09-01 00:52:50 | 53.11200 | -0.24117 | 347° | 22km/h | 27981m | 5.2m/s | -48.2°C | 3% | 0hPa | 2.6V | 08:30:00 | 02:02:35 | 00:00:00 | |
| DJ2DS-15 | 2026-09-01 00:52:46 | 53.11178 | -0.24119 | 15° | 16km/h | 27958m | 5.4m/s | -48.3°C | 3.0% | 0hPa | 2.6V | 00:00:00 | 02:02:31 | 00:00:00 | |
| DM0DOS-11 | 2026-09-01 00:52:45 | 53.11144 | -0.24127 | 357° | 9km/h | 27922m | 6.2m/s | -48.6°C | 3% | 0hPa | 2.6V | 08:30:00 | 02:02:25 | 00:00:00 | |
| BIOWL9-15 | 2026-09-01 00:52:39 | 53.11141 | -0.24124 | 306° | 7km/h | 27911m | 6.8m/s | -48.7°C | 0.6% | -1.0hPa | 2.5V | 00:00:00 | 00:00:00 | 00:00:00 | |
| DM0DOS-11 | 2026-09-01 00:52:34 | 53.11117 | -0.24108 | 1° | 18km/h | 27863m | 6.8m/s | -48.7°C | 3.1% | 0hPa | 2.5V | 08:30:00 | 02:02:15 | 00:00:00 | |
| BIOWL1-15 | 2026-09-01 00:52:28 | 53.11107 | -0.24107 | 350° | 18km/h | 27851m | 5.3m/s | -48.6°C | 0% | 0hPa | 2.6V | 18:12:15 | 02:02:13 | 00:00:00 | |
| DJ2DS-15 | 2026-09-01 00:52:26 | 53.11097 | -0.24100 | 316° | 13km/h | 27834m | 4.9m/s | -48.6°C | 0.6% | -1.0hPa | 2.5V | 00:00:00 | 00:00:00 | 00:00:00 | |
| DM0DOS-11 | 2026-09-01 00:52:24 | 53.11078 | -0.24066 | 314° | 24km/h | 27804m | 6.1m/s | -48.5°C | 3% | 0hPa | 2.5V | 08:30:00 | 02:02:05 | 00:00:00 | |
| DM0DOS-11 | 2026-09-01 00:52:14 | 53.11050 | -0.24030 | 292° | 15km/h | 27747m | 5.8m/s | -48.6°C | 3.1% | 0hPa | 2.5V | 08:30:00 | 02:01:55 | 00:00:00 | |
| BIOWL9-15 | 2026-09-01 00:52:08 | 53.11038 | -0.24008 | 320° | 15km/h | 27724m | 6.2m/s | -48.5°C | 0.6% | -1.0hPa | 2.6V | 00:00:00 | 00:00:00 | 00:00:00 | |
| DJ2DS-15 | 2026-09-01 00:52:06 | 53.11038 | -0.24008 | 321° | 13km/h | 27724m | 6.2m/s | -48.5°C | 3.0% | 0hPa | 2.6V | 00:00:00 | 02:01:51 | 00:00:00 | |
| DM0DOS-11 | 2026-09-01 00:52:04 | 53.11026 | -0.23994 | 306° | 9km/h | 27689m | 4.8m/s | -48.6°C | 3.1% | 0hPa | 2.6V | 08:30:00 | 02:01:45 | 00:00:00 | |
| DM0DOS-11 | 2026-09-01 00:51:53 | 53.11027 | -0.23945 | 262° | 15km/h | 27633m | 5.9m/s | -48.6°C | 3% | 0hPa | 2.6V | 08:30:00 | 02:01:35 | 00:00:00 | |
| BIOWL1-15 | 2026-09-01 00:51:53 | 53.11027 | -0.23951 | 281° | 15km/h | 27639m | 6.3m/s | -48.6°C | 0% | 0hPa | 2.5V | 18:12:15 | 02:01:36 | 00:00:00 | |
| DJ2DS-15 | 2026-09-01 00:51:45 | 53.11032 | -0.23910 | 258° | 16km/h | 27604m | 5.4m/s | -48.6°C | 3.0% | 0hPa | 2.6V | 00:00:00 | 02:01:30 | 08:30:00 | |
| DM0DOS-11 | 2026-09-01 00:51:43 | 53.11041 | -0.23876 | 259° | 11km/h | 27573m | 5.8m/s | -48.7°C | 3% | 0hPa | 2.5V | 08:30:00 | 02:01:25 | 00:00:00 | |
| BIOWL1-15 | 2026-09-01 00:51:41 | 53.11046 | -0.23860 | 216° | 16km/h | 27552m | 5.6m/s | -48.7°C | 0% | 0hPa | 2.5V | 18:12:15 | 02:01:21 | 00:00:00 | |
| BIOWL9-15 | 2026-09-01 00:51:37 | 53.11043 | -0.23864 | 225° | 11km/h | 27558m | 6.5m/s | -48.7°C | 0.6% | -1.0hPa | 2.5V | 00:00:00 | 00:00:00 | 00:00:00 | |
| DB0UT-7 | 2026-09-01 00:51:34 | 53.11054 | -0.23850 | 220° | 13km/h | 27542m | 5.4m/s | -48.7°C | 3.0% | 0hPa | 2.5V | 00:00:00 | 00:00:00 | 00:00:00 | |
| DM0DOS-11 | 2026-09-01 00:51:33 | 53.11064 | -0.23827 | 247° | 13km/h | 27520m | 4.9m/s | -49°C | 3.1% | 0hPa | 2.5V | 08:30:00 | 02:01:15 | 00:00:00 | |
| BIOWL1-15 | 2026-09-01 00:51:28 | 53.11073 | -0.23803 | 246° | 22km/h | 27497m | 6.6m/s | -49.1°C | 0% | 0hPa | 2.5V | 18:12:15 | 02:01:11 | 00:00:00 | |
| DJ2DS-15 | 2026-09-01 00:51:25 | 53.11074 | -0.23794 | 256° | 11km/h | 27491m | 5.8m/s | -49.1°C | 3.1% | 0hPa | 2.6V | 00:00:00 | 02:01:10 | 00:00:00 | |
| DM0DOS-11 | 2026-09-01 00:51:23 | 53.11083 | -0.23762 | 209° | 7km/h | 27463m | 5.9m/s | -49.3°C | 3.1% | 0hPa | 2.6V | 08:30:00 | 02:01:05 | 00:00:00 | |
| BIOWL1-15 | 2026-09-01 00:51:15 | 53.11087 | -0.23763 | 156° | 7km/h | 27434m | 6.3m/s | -49.4°C | 0% | 0hPa | 2.6V | 18:12:15 | 02:01:00 | 00:00:00 | |
| DM0DOS-11 | 2026-09-01 00:51:13 | 53.11094 | -0.23750 | 272° | 15km/h | 27407m | 4.6m/s | -49.5°C | 3.2% | 0hPa | 2.6V | 08:30:00 | 02:00:55 | 00:00:00 | |
| BIOWL1-15 | 2026-09-01 00:51:07 | 53.11095 | -0.23733 | 171° | 4km/h | 27339m | 5.3m/s | -49.5°C | 0% | 0hPa | 2.6V | 18:12:15 | 02:00:43 | 00:00:00 | |
| BIOWL9-15 | 2026-09-01 00:51:06 | 53.11095 | -0.23734 | 222° | 2km/h | 27385m | 5.5m/s | -49.7°C | 0.7% | -1.0hPa | 2.6V | 00:00:00 | 00:00:00 | 00:00:00 | |
| DJ2DS-15 | 2026-09-01 00:51:05 | 53.11095 | -0.23733 | 258° | 5km/h | 27380m | 5.5m/s | -49.6°C | 3.2% | 0hPa | 2.6V | 00:00:00 | 02:00:50 | 00:00:00 | |
| DB0UT-7 | 2026-09-01 00:51:04 | 53.11095 | -0.23732 | 326° | 7km/h | 27374m | 6.5m/s | -49.6°C | 3.2% | 0hPa | 2.6V | 00:00:00 | 02:00:49 | 00:00:00 | |
| DM0DOS-11 | 2026-09-01 00:51:02 | 53.11094 | -0.23732 | 152° | 4km/h | 27350m | 6.2m/s | -49.6°C | 3.2% | 0hPa | 2.6V | 08:30:00 | 02:00:45 | 00:00:00 | |
| BIOWL1-15 | 2026-09-01 00:50:52 | 53.11089 | -0.23738 | 64° | 11km/h | 27305m | 5.2m/s | -49.3°C | 0% | 0hPa | 2.5V | 18:12:15 | 02:00:37 | 00:00:00 | |
| DM0DOS-11 | 2026-09-01 00:50:51 | 53.11086 | -0.23746 | 49° | 13km/h | 27294m | 6.3m/s | -49.3°C | 3.2% | 0hPa | 2.5V | 08:30:00 | 02:00:35 | 00:00:00 | |
| BIOWL1-15 | 2026-09-01 00:50:42 | 53.11073 | -0.23757 | 354° | 11km/h | 27243m | 5.1m/s | -49.4°C | 0% | 0hPa | 2.5V | 18:12:15 | 02:00:26 | 00:00:00 | |
| DM0DOS-11 | 2026-09-01 00:50:41 | 53.11071 | -0.23757 | 4° | 11km/h | 27238m | 5.9m/s | -49.4°C | 3.2% | 0hPa | 2.5V | 08:30:00 | 02:00:25 | 00:00:00 | |
| DJ2DS-15 | 2026-09-01 00:50:37 | 53.11063 | -0.23762 | 33° | 13km/h | 27221m | 6.2m/s | -49.3°C | 0.7% | -1.0hPa | 2.5V | 00:00:00 | 00:00:00 | 00:00:00 | |
| BIOWL9-15 | 2026-09-01 00:50:35 | 53.11057 | -0.23769 | 34° | 16km/h | 27209m | 5.4m/s | -49.3°C | 0.7% | -1.0hPa | 2.5V | 00:00:00 | 00:00:00 | 00:00:00 | |
| DB0UT-7 | 2026-09-01 00:50:34 | 53.11054 | -0.23773 | 42° | 13km/h | 27203m | 5.7m/s | -49.3°C | 3.2% | 0hPa | 2.5V | 00:00:00 | 00:00:00 | 00:00:00 | |
| DM0DOS-11 | 2026-09-01 00:50:31 | 53.11046 | -0.23788 | 20° | 7km/h | 27180m | 6.7m/s | -49.3°C | 3.2% | 0hPa | 2.5V | 08:30:00 | 02:00:15 | 00:00:00 | |
| BIOWL1-15 | 2026-09-01 00:50:30 | 53.11039 | -0.23784 | 314° | 4km/h | 27157m | 6.1m/s | -49.3°C | 0% | 0hPa | 2.6V | 18:12:15 | 02:00:11 | 00:00:00 | |
| DM0DOS-11 | 2026-09-01 00:50:26 | 53.11029 | -0.23789 | 19° | 16km/h | 27124m | 5.5m/s | -49.2°C | 3.2% | 0hPa | 2.5V | 08:30:00 | 02:00:05 | 00:00:00 | |
| DJ2DS-15 | 2026-09-01 00:50:25 | 53.11039 | -0.23783 | 214° | 15km/h | 27152m | 4.9m/s | -49.3°C | 3.2% | 0hPa | 2.6V | 00:00:00 | 02:00:10 | 00:00:00 | |
| DM0DOS-11 | 2026-09-01 00:50:12 | 53.10992 | -0.23790 | 351° | 15km/h | 27068m | 6.1m/s | -49°C | 3.1% | 0hPa | 2.6V | 08:30:00 | 01:59:55 | 00:00:00 | |
| DM0DOS-11 | 2026-09-01 00:50:05 | 53.10948 | -0.23804 | 357° | 11km/h | 27011m | 5.2m/s | -49.2°C | 3.2% | 0hPa | 2.5V | 08:30:00 | 01:59:45 | 00:00:00 | |
| DJ2DS-15 | 2026-09-01 00:50:05 | 53.10970 | -0.23797 | 25° | 15km/h | 27040m | 4.8m/s | -49.0°C | 3.1% | 0hPa | 2.5V | 00:00:00 | 01:59:50 | 00:00:00 | |
| DB0UT-7 | 2026-09-01 00:50:04 | 53.10965 | -0.23801 | 17° | 15km/h | 27035m | 6.3m/s | -49.0°C | 3.1% | 0hPa | 2.5V | 00:00:00 | 01:59:49 | 00:00:00 | |
| DJ2DS-15 | 2026-09-01 00:50:01 | 53.10951 | -0.23804 | 3° | 13km/h | 27017m | 6.5m/s | -49.2°C | 0.7% | -1.0hPa | 2.5V | 00:00:00 | 00:00:00 | 00:00:00 | |
| DM0DOS-11 | 2026-09-01 00:49:52 | 53.10915 | -0.23791 | 356° | 20km/h | 26954m | 4.6m/s | -49.1°C | 3.2% | 0hPa | 2.5V | 08:30:00 | 01:59:35 | 00:00:00 | |
| DJ2DS-15 | 2026-09-01 00:49:45 | 53.10897 | -0.23791 | 353° | 13km/h | 26927m | 6.0m/s | -49.2°C | 3.2% | 0hPa | 2.5V | 00:00:00 | 01:59:30 | 00:00:00 | |
| DM0DOS-11 | 2026-09-01 00:49:41 | 53.10881 | -0.23781 | 313° | 7km/h | 26897m | 6m/s | -49.1°C | 3.2% | 0hPa | 2.5V | 08:30:00 | 01:59:25 | 00:00:00 | |
| DM0DOS-11 | 2026-09-01 00:49:35 | 53.10865 | -0.23741 | 337° | 9km/h | 26841m | 6.5m/s | -48.9°C | 3.2% | 0hPa | 2.6V | 08:30:00 | 01:59:15 | 00:00:00 | |
| BIOWL1-15 | 2026-09-01 00:49:30 | 53.10846 | -0.23708 | 295° | 15km/h | 26786m | 6.3m/s | -48.8°C | 0% | 0hPa | 2.6V | 18:12:15 | 01:59:05 | 00:00:00 | |
| DJ2DS-15 | 2026-09-01 00:49:25 | 53.10854 | -0.23732 | 325° | 11km/h | 26813m | 5.4m/s | -48.9°C | 3.2% | 0hPa | 2.6V | 00:00:00 | 01:59:10 | 00:00:00 | |
| DM0DOS-11 | 2026-09-01 00:49:21 | 53.10846 | -0.23708 | 295° | 15km/h | 26786m | 6.3m/s | -48.8°C | 3.2% | 0hPa | 2.6V | 08:30:00 | 01:59:05 | 00:00:00 | |
| DM0DOS-11 | 2026-09-01 00:49:14 | 53.10831 | -0.23674 | 288° | 11km/h | 26729m | 6.3m/s | -48.5°C | 3.1% | 0hPa | 2.5V | 08:30:00 | 01:58:55 | 00:00:00 | |
| BIOWL1-15 | 2026-09-01 00:49:09 | 53.10828 | -0.23661 | 278° | 9km/h | 26711m | 6.4m/s | -48.5°C | 0% | 0hPa | 2.5V | 18:12:15 | 01:58:52 | 00:00:00 | |
| DJ2DS-15 | 2026-09-01 00:49:05 | 53.10827 | -0.23655 | 301° | 9km/h | 26701m | 4.9m/s | -48.4°C | 3.1% | 0hPa | 2.6V | 00:00:00 | 01:58:50 | 00:00:00 | |
| DB0UT-7 | 2026-09-01 00:49:04 | 53.10826 | -0.23653 | 318° | 11km/h | 26696m | 6.3m/s | -48.4°C | 3.1% | 0hPa | 2.6V | 00:00:00 | 01:58:49 | 00:00:00 | |
| DM0DOS-11 | 2026-09-01 00:49:03 | 53.10819 | -0.23644 | 306° | 4km/h | 26672m | 5.3m/s | -48.4°C | 3.1% | 0hPa | 2.5V | 08:30:00 | 01:58:45 | 00:00:00 | |
| BIOWL1-15 | 2026-09-01 00:49:01 | 53.10819 | -0.23642 | 261° | 5km/h | 26667m | 4.4m/s | -48.4°C | 0% | 0hPa | 2.6V | 18:12:15 | 01:58:44 | 00:00:00 | |
| DM0DOS-11 | 2026-09-01 00:48:53 | 53.10821 | -0.23601 | 269° | 9km/h | 26617m | 6.4m/s | -48.2°C | 3% | 0hPa | 2.5V | 08:30:00 | 01:58:35 | 00:00:00 | |
| BIOWL1-15 | 2026-09-01 00:48:49 | 53.10821 | -0.23588 | 248° | 9km/h | 26602m | 6.1m/s | -48.2°C | 0% | 0hPa | 2.6V | 18:12:15 | 01:58:32 | 00:00:00 | |
| DJ2DS-15 | 2026-09-01 00:48:45 | 53.10825 | -0.23582 | 211° | 15km/h | 26590m | 5.5m/s | -48.2°C | 3.0% | 0hPa | 2.5V | 00:00:00 | 01:58:30 | 08:30:00 | |
| DM0DOS-11 | 2026-09-01 00:48:42 | 53.10838 | -0.23554 | 245° | 16km/h | 26561m | 6.5m/s | -48.2°C | 3% | 0hPa | 2.5V | 08:30:00 | 01:58:25 | 00:00:00 | |
| BIOWL1-15 | 2026-09-01 00:48:37 | 53.10840 | -0.23533 | 280° | 15km/h | 26538m | 5.8m/s | -48.2°C | 0% | 0hPa | 2.6V | 18:12:15 | 01:58:21 | 00:00:00 | |
| DM0DOS-11 | 2026-09-01 00:48:35 | 53.10851 | -0.23504 | 228° | 20km/h | 26504m | 6.1m/s | -48.1°C | 3% | 0hPa | 2.5V | 08:30:00 | 01:58:15 | 00:00:00 | |
| BIOWL1-15 | 2026-09-01 00:48:26 | 53.10860 | -0.23474 | 270° | 11km/h | 26478m | 4.4m/s | 0°C | 0% | 0hPa | 2.6V | 18:12:15 | 01:58:10 | 00:00:00 | |
| DM0DOS-11 | 2026-09-01 00:48:25 | 53.10854 | -0.23438 | 219° | 7km/h | 26439m | 5m/s | -48.4°C | 3% | 0hPa | 2.5V | 08:30:00 | 01:58:03 | 00:00:00 | |
| DJ2DS-15 | 2026-09-01 00:48:24 | 53.10859 | -0.23469 | 286° | 13km/h | 26473m | 6.3m/s | -48.2°C | 3.0% | 0hPa | 2.5V | 00:00:00 | 01:58:09 | 00:00:00 | |
| BIOWL1-15 | 2026-09-01 00:48:17 | 53.10868 | -0.23398 | 281° | 15km/h | 26373m | 6.2m/s | 0°C | 0% | 0hPa | 2.5V | 18:12:15 | 01:57:51 | 00:00:00 | |
| BIOWL1-15 | 2026-09-01 00:48:10 | 53.10868 | -0.23386 | 253° | 7km/h | 26356m | 6.1m/s | 0°C | 0% | 0hPa | 2.5V | 18:12:15 | 01:57:48 | 00:00:00 | |
| DJ2DS-15 | 2026-09-01 00:48:04 | 53.10868 | -0.23389 | 261° | 11km/h | 26362m | 5.6m/s | -48.7°C | 3.1% | 0hPa | 2.5V | 00:00:00 | 01:57:49 | 00:00:00 | |
| DM0DOS-11 | 2026-09-01 00:48:03 | 53.10870 | -0.23378 | 225° | 5km/h | 26339m | 5.5m/s | -48.8°C | 3.1% | 0hPa | 2.5V | 08:30:00 | 01:57:45 | 00:00:00 | |
| BIOWL9-15 | 2026-09-01 00:48:00 | 53.10870 | -0.23378 | 225° | 4km/h | 26339m | 5.5m/s | -48.8°C | -1.0% | -1.0hPa | 2.5V | 00:00:00 | 00:00:00 | 00:00:00 | |
| DM0DOS-11 | 2026-09-01 00:47:53 | 53.10886 | -0.23340 | 231° | 11km/h | 26282m | 6.3m/s | -48.8°C | 3.1% | 0hPa | 2.5V | 08:30:00 | 01:57:35 | 00:00:00 | |
| BIOWL1-15 | 2026-09-01 00:47:52 | 53.10884 | -0.23344 | 228° | 13km/h | 26288m | 5.3m/s | 0°C | 0% | 0hPa | 2.5V | 18:12:15 | 01:57:36 | 00:00:00 | |
| BIOWL1-15 | 2026-09-01 00:47:41 | 53.10903 | -0.23295 | 289° | 11km/h | 26203m | 5m/s | 0°C | 0% | 0hPa | 2.6V | 18:12:15 | 01:57:21 | 00:00:00 | |
| DJ2DS-15 | 2026-09-01 00:47:37 | 53.10904 | -0.23299 | 307° | 9km/h | 26209m | 6.2m/s | -48.7°C | 0.6% | -1.0hPa | 2.6V | 00:00:00 | 00:00:00 | 00:00:00 | |
| DM0DOS-11 | 2026-09-01 00:47:35 | 53.10923 | -0.23284 | 192° | 24km/h | 26168m | 5.3m/s | -48.7°C | 3% | 0hPa | 2.6V | 08:30:00 | 01:57:15 | 00:00:00 | |
| BIOWL1-15 | 2026-09-01 00:47:26 | 53.10938 | -0.23274 | 290° | 5km/h | 26135m | 6.4m/s | 0°C | 0% | 0hPa | 2.5V | 18:12:15 | 01:57:09 | 00:00:00 | |
| DJ2DS-15 | 2026-09-01 00:47:24 | 53.10938 | -0.23274 | 291° | 7km/h | 26136m | 6.3m/s | -48.7°C | 3.0% | 0hPa | 2.6V | 00:00:00 | 01:57:09 | 00:00:00 | |
| DM0DOS-11 | 2026-09-01 00:47:23 | 53.10938 | -0.23267 | 148° | 5km/h | 26114m | 6.2m/s | -49°C | 3.1% | 0hPa | 2.6V | 08:30:00 | 01:57:05 | 00:00:00 | |
| BIOWL1-15 | 2026-09-01 00:47:15 | 53.10953 | -0.23277 | 185° | 13km/h | 26087m | 4.6m/s | 0°C | 0% | 0hPa | 2.6V | 18:12:15 | 01:57:00 | 00:00:00 | |
| DM0DOS-11 | 2026-09-01 00:47:11 | 53.10963 | -0.23279 | 138° | 2km/h | 26061m | 5.5m/s | -49.5°C | 3.1% | 0hPa | 2.5V | 08:30:00 | 01:56:55 | 00:00:00 | |
| DM0DOS-11 | 2026-09-01 00:47:05 | 53.10962 | -0.23282 | 158° | 9km/h | 26002m | 6.5m/s | -49.7°C | 3.2% | 0hPa | 2.5V | 08:30:00 | 01:56:45 | 00:00:00 | |
| DJ2DS-15 | 2026-09-01 00:47:04 | 53.10958 | -0.23280 | 70° | 5km/h | 26026m | 5.1m/s | -49.7°C | 3.2% | 0hPa | 2.5V | 00:00:00 | 01:56:49 | 00:00:00 | |
| DJ2DS-15 | 2026-09-01 00:47:01 | 53.10961 | -0.23282 | 158° | 9km/h | 26003m | 6.5m/s | -49.7°C | 0.7% | -1.0hPa | 2.5V | 00:00:00 | 00:00:00 | 00:00:00 | |
| DM0DOS-11 | 2026-09-01 00:46:53 | 53.10970 | -0.23287 | 3° | 5km/h | 25945m | 6.3m/s | -50°C | 3.2% | 0hPa | 2.5V | 08:30:00 | 01:56:35 | 00:00:00 | |
| DJ2DS-15 | 2026-09-01 00:46:44 | 53.10969 | -0.23294 | 185° | 13km/h | 25911m | 6.1m/s | -50.0°C | 3.3% | 0hPa | 2.5V | 00:00:00 | 01:56:29 | 00:00:00 | |
| DM0DOS-11 | 2026-09-01 00:46:43 | 53.10976 | -0.23293 | 165° | 7km/h | 25887m | 4.7m/s | -50.1°C | 3.2% | 0hPa | 2.5V | 08:30:00 | 01:56:25 | 00:00:00 | |
| DB0UT-7 | 2026-09-01 00:46:34 | 53.10973 | -0.23297 | 52° | 15km/h | 25856m | 6.7m/s | -50.4°C | 3.4% | 0hPa | 2.5V | 00:00:00 | 00:00:00 | 00:00:00 | |
| DM0DOS-11 | 2026-09-01 00:46:32 | 53.10971 | -0.23323 | 111° | 20km/h | 25832m | 4.3m/s | -50.5°C | 3.4% | 0hPa | 2.5V | 08:30:00 | 01:56:15 | 00:00:00 | |
| DJ2DS-15 | 2026-09-01 00:46:25 | 53.10985 | -0.23357 | 134° | 9km/h | 25803m | 5.3m/s | -50.4°C | 0.7% | -1.0hPa | 2.6V | 00:00:00 | 00:00:00 | 00:00:00 | |
| DJ2DS-15 | 2026-09-01 00:46:24 | 53.10987 | -0.23360 | 123° | 15km/h | 25799m | 4.8m/s | -50.4°C | 3.4% | 0hPa | 2.6V | 00:00:00 | 01:56:09 | 00:00:00 | |
| DM0DOS-11 | 2026-09-01 00:46:23 | 53.10987 | -0.23378 | 84° | 16km/h | 25776m | 5.6m/s | -50.3°C | 3.4% | 0hPa | 2.6V | 08:30:00 | 01:56:05 | 00:00:00 | |
| DM0DOS-11 | 2026-09-01 00:46:11 | 53.10983 | -0.23447 | 75° | 9km/h | 25718m | 5.3m/s | -49.9°C | 3.3% | 0hPa | 2.6V | 08:30:00 | 01:55:55 | 00:00:00 | |
| DB0UT-7 | 2026-09-01 00:46:04 | 53.10980 | -0.23476 | 52° | 13km/h | 25684m | 5.4m/s | -49.7°C | 3.3% | 0hPa | 2.6V | 00:00:00 | 01:55:49 | 00:00:00 | |
| DM0DOS-11 | 2026-09-01 00:46:01 | 53.10974 | -0.23495 | 73° | 15km/h | 25661m | 4.8m/s | -49.6°C | 3.2% | 0hPa | 2.5V | 08:30:00 | 01:55:45 | 00:00:00 | |
| DM0DOS-11 | 2026-09-01 00:45:51 | 53.10958 | -0.23545 | 56° | 13km/h | 25602m | 6.7m/s | -49.6°C | 3.2% | 0hPa | 2.5V | 08:30:00 | 01:55:35 | 00:00:00 | |
| DJ2DS-15 | 2026-09-01 00:45:44 | 53.10942 | -0.23566 | 21° | 16km/h | 25568m | 5.8m/s | -49.5°C | 3.2% | 0hPa | 2.5V | 00:00:00 | 01:55:29 | 08:30:00 | |
| DM0DOS-11 | 2026-09-01 00:45:41 | 53.10931 | -0.23579 | 28° | 11km/h | 25545m | 6.3m/s | -49.5°C | 3.1% | 0hPa | 2.5V | 08:30:00 | 01:55:25 | 00:00:00 | |
| DB0UT-7 | 2026-09-01 00:45:34 | 53.10914 | -0.23588 | 14° | 18km/h | 25509m | 6.5m/s | -49.6°C | 3.2% | 0hPa | 2.5V | 00:00:00 | 00:00:00 | 00:00:00 | |
| DM0DOS-11 | 2026-09-01 00:45:24 | 53.10835 | -0.23606 | 10° | 22km/h | 25418m | 6.3m/s | -50.1°C | 3.2% | 0hPa | 2.5V | 08:30:00 | 01:55:03 | 00:00:00 | |
| BIOWL1-15 | 2026-09-01 00:45:17 | 53.10813 | -0.23612 | 356° | 24km/h | 25393m | 5.9m/s | 0°C | 0% | 0hPa | 2.5V | 18:12:15 | 01:54:59 | 00:00:00 | |
| DJ2DS-15 | 2026-09-01 00:45:13 | 53.10802 | -0.23609 | 351° | 20km/h | 25383m | 5.8m/s | -50.3°C | 0.7% | -1.0hPa | 2.6V | 00:00:00 | 00:00:00 | 00:00:00 | |
| DM0DOS-11 | 2026-09-01 00:45:11 | 53.10786 | -0.23613 | 20° | 13km/h | 25358m | 6.6m/s | -50.3°C | 3.3% | 0hPa | 2.6V | 08:30:00 | 01:54:53 | 00:00:00 | |
| BIOWL1-15 | 2026-09-01 00:45:07 | 53.10777 | -0.23618 | 18° | 11km/h | 25342m | 6.5m/s | 0°C | 0% | 0hPa | 2.5V | 18:12:15 | 01:54:50 | 00:00:00 | |
| DJ2DS-15 | 2026-09-01 00:45:04 | 53.10775 | -0.23619 | 29° | 11km/h | 25336m | 5.8m/s | -50.3°C | 3.3% | 0hPa | 2.6V | 00:00:00 | 01:54:49 | 00:00:00 | |
| DM0DOS-11 | 2026-09-01 00:45:01 | 53.10754 | -0.23623 | 359° | 16km/h | 25302m | 6m/s | -50.4°C | 3.3% | 0hPa | 2.6V | 08:30:00 | 01:54:43 | 00:00:00 | |
| BIOWL9-15 | 2026-09-01 00:44:54 | 53.10743 | -0.23618 | 316° | 9km/h | 25273m | 4.9m/s | 0°C | -1.0% | -1.0hPa | 2.6V | 00:00:00 | 00:00:00 | 00:00:00 | |
| BIOWL1-15 | 2026-09-01 00:44:52 | 53.10724 | -0.23607 | 245° | 11km/h | 25206m | 6.1m/s | 0°C | 0% | 0hPa | 2.6V | 18:12:15 | 01:54:26 | 00:00:00 | |
| DM0DOS-11 | 2026-09-01 00:44:51 | 53.10737 | -0.23613 | 23° | 7km/h | 25245m | 5.3m/s | -50.6°C | 3.3% | 0hPa | 2.6V | 08:30:00 | 01:54:33 | 00:00:00 | |
| DJ2DS-15 | 2026-09-01 00:44:44 | 53.10725 | -0.23616 | 348° | 9km/h | 25224m | 6.1m/s | -50.5°C | 3.4% | 0hPa | 2.5V | 00:00:00 | 01:54:29 | 00:00:00 | |
| DM0DOS-11 | 2026-09-01 00:44:41 | 53.10728 | -0.23594 | 239° | 9km/h | 25189m | 4.7m/s | -50.5°C | 3.4% | 0hPa | 2.5V | 08:30:00 | 01:54:23 | 00:00:00 | |
| DJ2DS-15 | 2026-09-01 00:44:36 | 53.10731 | -0.23589 | 197° | 7km/h | 25178m | 5.5m/s | -50.4°C | 0.7% | -1.0hPa | 2.5V | 00:00:00 | 00:00:00 | 00:00:00 | |
| DB0UT-7 | 2026-09-01 00:44:33 | 53.10734 | -0.23586 | 308° | 7km/h | 25160m | 6.2m/s | -50.3°C | 3.3% | 0hPa | 2.5V | 00:00:00 | 00:00:00 | 00:00:00 | |
| DM0DOS-11 | 2026-09-01 00:44:31 | 53.10731 | -0.23572 | 264° | 9km/h | 25130m | 6m/s | -50.3°C | 3.3% | 0hPa | 2.5V | 08:30:00 | 01:54:13 | 00:00:00 | |
| BIOWL1-15 | 2026-09-01 00:44:27 | 53.10731 | -0.23568 | 266° | 11km/h | 25124m | 6.6m/s | 0°C | 0% | 0hPa | 2.5V | 18:12:15 | 01:54:12 | 00:00:00 | |
| DJ2DS-15 | 2026-09-01 00:44:24 | 53.10733 | -0.23556 | 235° | 5km/h | 25106m | 5.8m/s | -50.2°C | 3.3% | 0hPa | 2.5V | 00:00:00 | 01:54:09 | 00:00:00 | |
| DM0DOS-11 | 2026-09-01 00:44:21 | 53.10731 | -0.23538 | 301° | 5km/h | 25072m | 5.8m/s | -50.2°C | 3.3% | 0hPa | 2.5V | 08:30:00 | 01:54:03 | 00:00:00 | |
| BIOWL1-15 | 2026-09-01 00:44:16 | 53.10726 | -0.23522 | 356° | 4km/h | 25016m | 5.6m/s | 0°C | 0% | 0hPa | 2.5V | 18:12:15 | 01:53:53 | 00:00:00 | |
| DM0DOS-11 | 2026-09-01 00:44:11 | 53.10726 | -0.23522 | 356° | 4km/h | 25016m | 5.6m/s | -50.3°C | 3.3% | 0hPa | 2.5V | 08:30:00 | 01:53:53 | 00:00:00 | |
| BIOWL1-15 | 2026-09-01 00:44:04 | 53.10725 | -0.23520 | 193° | 2km/h | 24994m | 4.6m/s | 0°C | 0% | 0hPa | 2.6V | 18:12:15 | 01:53:49 | 00:00:00 | |
| DJ2DS-15 | 2026-09-01 00:44:04 | 53.10725 | -0.23519 | 193° | 7km/h | 24994m | 4.6m/s | -50.2°C | 3.3% | 0hPa | 2.6V | 00:00:00 | 01:53:49 | 00:00:00 | |
| DB0UT-7 | 2026-09-01 00:44:03 | 53.10725 | -0.23519 | 256° | 7km/h | 24989m | 5.0m/s | -50.1°C | 3.3% | 0hPa | 2.6V | 00:00:00 | 01:53:48 | 00:00:00 | |
| DM0DOS-11 | 2026-09-01 00:44:01 | 53.10718 | -0.23519 | 58° | 9km/h | 24960m | 6.2m/s | -50.1°C | 3.2% | 0hPa | 2.6V | 08:30:00 | 01:53:43 | 00:00:00 | |
| DJ2DS-15 | 2026-09-01 00:44:00 | 53.10721 | -0.23517 | 355° | 7km/h | 24972m | 5.0m/s | -50.1°C | 0.7% | -1.0hPa | 2.6V | 00:00:00 | 00:00:00 | 00:00:00 | |
| DM0DOS-11 | 2026-09-01 00:43:51 | 53.10718 | -0.23520 | 255° | 9km/h | 24907m | 5.1m/s | -50.4°C | 3.3% | 0hPa | 2.6V | 08:30:00 | 01:53:33 | 00:00:00 | |
| DJ2DS-15 | 2026-09-01 00:43:44 | 53.10716 | -0.23508 | 309° | 9km/h | 24884m | 5.9m/s | -50.4°C | 3.4% | 0hPa | 2.5V | 00:00:00 | 01:53:29 | 00:00:00 | |
| DM0DOS-11 | 2026-09-01 00:43:39 | 53.10714 | -0.23501 | 265° | 5km/h | 24852m | 6.5m/s | -50.4°C | 3.4% | 0hPa | 2.5V | 08:30:00 | 01:53:23 | 00:00:00 | |
| DB0UT-7 | 2026-09-01 00:43:33 | 53.10712 | -0.23484 | 307° | 13km/h | 24825m | 4.8m/s | -50.4°C | 3.4% | 0hPa | 2.5V | 00:00:00 | 00:00:00 | 00:00:00 | |
| DM0DOS-11 | 2026-09-01 00:43:31 | 53.10701 | -0.23470 | 312° | 15km/h | 24797m | 6.5m/s | -50.3°C | 3.4% | 0hPa | 2.5V | 08:30:00 | 01:53:13 | 00:00:00 | |
| DJ2DS-15 | 2026-09-01 00:43:24 | 53.10695 | -0.23444 | 270° | 13km/h | 24775m | 5.6m/s | -50.2°C | 3.3% | 0hPa | 2.6V | 00:00:00 | 01:53:09 | 00:00:00 | |
| DM0DOS-11 | 2026-09-01 00:43:21 | 53.10688 | -0.23412 | 329° | 15km/h | 24743m | 6.3m/s | -50.2°C | 3.3% | 0hPa | 2.6V | 08:30:00 | 01:53:03 | 00:00:00 | |
| DM0DOS-11 | 2026-09-01 00:43:11 | 53.10675 | -0.23375 | 264° | 13km/h | 24688m | 5m/s | -50.2°C | 3.3% | 0hPa | 2.6V | 08:30:00 | 01:52:53 | 00:00:00 | |
| DJ2DS-15 | 2026-09-01 00:43:04 | 53.10675 | -0.23360 | 293° | 9km/h | 24667m | 5.3m/s | -50.3°C | 3.3% | 0hPa | 2.6V | 00:00:00 | 01:52:49 | 00:00:00 | |
| DB0UT-7 | 2026-09-01 00:43:03 | 53.10673 | -0.23356 | 296° | 9km/h | 24662m | 5.8m/s | -50.4°C | 3.4% | 0hPa | 2.6V | 00:00:00 | 01:52:48 | 08:30:00 | |
| DM0DOS-11 | 2026-09-01 00:43:01 | 53.10670 | -0.23344 | 37° | 0km/h | 24636m | 4.6m/s | -50.4°C | 3.3% | 0hPa | 2.6V | 08:30:00 | 01:52:43 | 00:00:00 | |
| DM0DOS-11 | 2026-09-01 00:42:51 | 53.10675 | -0.23313 | 256° | 18km/h | 24582m | 6m/s | -50.2°C | 3.3% | 0hPa | 2.5V | 08:30:00 | 01:52:33 | 00:00:00 | |
| DJ2DS-15 | 2026-09-01 00:42:48 | 53.10682 | -0.23291 | 247° | 7km/h | 24561m | 5.7m/s | -50.1°C | 3.3% | 0hPa | 2.5V | 00:00:00 | 01:52:29 | 08:30:00 | |
| DM0DOS-11 | 2026-09-01 00:42:46 | 53.10689 | -0.23279 | 225° | 5km/h | 24528m | 6.2m/s | -50.3°C | 3.3% | 0hPa | 2.5V | 08:30:00 | 01:52:23 | 00:00:00 | |
| DM0DOS-11 | 2026-09-01 00:42:33 | 53.10694 | -0.23254 | 167° | 5km/h | 24469m | 5.7m/s | -50.7°C | 3.4% | 0hPa | 2.5V | 08:30:00 | 01:52:12 | 00:00:00 | |
| DB0UT-7 | 2026-09-01 00:42:33 | 53.10689 | -0.23266 | 260° | 7km/h | 24501m | 4.5m/s | -50.4°C | 3.3% | 0hPa | 2.5V | 00:00:00 | 00:00:00 | 00:00:00 | |
| DJ2DS-15 | 2026-09-01 00:42:24 | 53.10696 | -0.23258 | 105° | 9km/h | 24452m | 6.0m/s | -50.6°C | 3.4% | 0hPa | 2.5V | 00:00:00 | 01:52:09 | 00:00:00 | |
| DM0DOS-11 | 2026-09-01 00:42:22 | 53.10685 | -0.23265 | 346° | 13km/h | 24421m | 6.1m/s | -50.6°C | 3.4% | 0hPa | 2.5V | 08:30:00 | 01:52:03 | 00:00:00 | |
| DJ2DS-15 | 2026-09-01 00:42:12 | 53.10673 | -0.23256 | 9° | 4km/h | 24391m | 4.8m/s | -50.6°C | 0.7% | -1.0hPa | 2.6V | 00:00:00 | 00:00:00 | 00:00:00 | |
| DJ2DS-15 | 2026-09-01 00:42:04 | 53.10662 | -0.23244 | 322° | 16km/h | 24350m | 6.2m/s | -50.5°C | 3.3% | 0hPa | 2.6V | 00:00:00 | 01:51:49 | 00:00:00 | |
| DB0UT-7 | 2026-09-01 00:42:03 | 53.10658 | -0.23239 | 312° | 16km/h | 24344m | 5.0m/s | -50.5°C | 3.3% | 0hPa | 2.6V | 00:00:00 | 01:51:48 | 00:00:00 | |
| DM0DOS-11 | 2026-09-01 00:42:02 | 53.10643 | -0.23209 | 304° | 11km/h | 24318m | 6m/s | -50.8°C | 3.4% | 0hPa | 2.6V | 08:30:00 | 01:51:43 | 00:00:00 | |
| DM0DOS-11 | 2026-09-01 00:41:52 | 53.10628 | -0.23166 | 308° | 27km/h | 24265m | 5.4m/s | -50.8°C | 3.4% | 0hPa | 2.5V | 08:30:00 | 01:51:33 | 00:00:00 | |
| DJ2DS-15 | 2026-09-01 00:41:44 | 53.10616 | -0.23133 | 278° | 13km/h | 24245m | 4.6m/s | -50.6°C | 3.4% | 0hPa | 2.5V | 00:00:00 | 01:51:29 | 00:00:00 | |
| DM0DOS-11 | 2026-09-01 00:41:42 | 53.10612 | -0.23099 | 290° | 11km/h | 24214m | 6.1m/s | -50.6°C | 3.4% | 0hPa | 2.5V | 08:30:00 | 01:51:23 | 00:00:00 | |
| DM0DOS-11 | 2026-09-01 00:41:32 | 53.10599 | -0.23043 | 249° | 5km/h | 24161m | 5.2m/s | -50.7°C | 3.3% | 0hPa | 2.6V | 08:30:00 | 01:51:13 | 00:00:00 | |
| DJ2DS-15 | 2026-09-01 00:41:24 | 53.10600 | -0.23032 | 270° | 9km/h | 24142m | 4.6m/s | -50.7°C | 3.3% | 0hPa | 2.6V | 00:00:00 | 01:51:09 | 00:00:00 | |
| DM0DOS-11 | 2026-09-01 00:41:22 | 53.10590 | -0.22998 | 291° | 11km/h | 24110m | 5.5m/s | -50.9°C | 3.4% | 0hPa | 2.6V | 08:30:00 | 01:51:03 | 00:00:00 | |
| DM0DOS-11 | 2026-09-01 00:41:12 | 53.10602 | -0.22993 | 298° | 4km/h | 24058m | 5.2m/s | -51°C | 3.5% | 0hPa | 2.6V | 08:30:00 | 01:50:53 | 00:00:00 | |
| DJ2DS-15 | 2026-09-01 00:41:04 | 53.10601 | -0.22983 | 291° | 11km/h | 24036m | 5.5m/s | -50.8°C | 3.4% | 0hPa | 2.5V | 00:00:00 | 01:50:49 | 00:00:00 | |
| DB0UT-7 | 2026-09-01 00:41:03 | 53.10600 | -0.22982 | 339° | 11km/h | 24031m | 5.6m/s | -50.8°C | 3.4% | 0hPa | 2.5V | 00:00:00 | 01:50:48 | 00:00:00 | |
| DM0DOS-11 | 2026-09-01 00:41:02 | 53.10609 | -0.22998 | 134° | 18km/h | 24003m | 5.7m/s | -50.8°C | 3.4% | 0hPa | 2.5V | 08:30:00 | 01:50:43 | 00:00:00 | |
| DM0DOS-11 | 2026-09-01 00:40:51 | 53.10620 | -0.22969 | 276° | 13km/h | 23950m | 5.5m/s | -50.8°C | 3.4% | 0hPa | 2.5V | 08:30:00 | 01:50:33 | 00:00:00 | |
| DJ2DS-15 | 2026-09-01 00:40:44 | 53.10622 | -0.22963 | 139° | 7km/h | 23929m | 5.1m/s | -50.7°C | 3.4% | 0hPa | 2.6V | 00:00:00 | 01:50:29 | 00:00:00 | |
| DM0DOS-11 | 2026-09-01 00:40:40 | 53.10635 | -0.22958 | 244° | 7km/h | 23895m | 4.9m/s | -50.8°C | 3.4% | 0hPa | 2.5V | 08:30:00 | 01:50:23 | 00:00:00 | |
| DM0DOS-11 | 2026-09-01 00:40:33 | 53.10639 | -0.22949 | 161° | 7km/h | 23841m | 4.8m/s | -50.8°C | 3.4% | 0hPa | 2.6V | 08:30:00 | 01:50:13 | 00:00:00 | |
| DB0UT-7 | 2026-09-01 00:40:33 | 53.10638 | -0.22940 | 282° | 7km/h | 23869m | 5.5m/s | -50.8°C | 3.4% | 0hPa | 2.6V | 00:00:00 | 00:00:00 | 00:00:00 | |
| DJ2DS-15 | 2026-09-01 00:40:24 | 53.10642 | -0.22942 | 282° | 7km/h | 23820m | 4.8m/s | -50.8°C | 3.4% | 0hPa | 2.6V | 00:00:00 | 01:50:09 | 00:00:00 | |
| DM0DOS-11 | 2026-09-01 00:40:21 | 53.10639 | -0.22929 | 36° | 7km/h | 23787m | 4.9m/s | -50.8°C | 3.3% | 0hPa | 2.6V | 08:30:00 | 01:50:03 | 00:00:00 | |
| DM0DOS-11 | 2026-09-01 00:40:11 | 53.10646 | -0.22934 | 142° | 9km/h | 23733m | 4.4m/s | -51.2°C | 3.5% | 0hPa | 2.5V | 08:30:00 | 01:49:53 | 00:00:00 | |
| DJ2DS-15 | 2026-09-01 00:40:04 | 53.10646 | -0.22951 | 79° | 9km/h | 23711m | 6.5m/s | -51.2°C | 3.4% | 0hPa | 2.5V | 00:00:00 | 01:49:49 | 00:00:00 | |
| DM0DOS-11 | 2026-09-01 00:40:03 | 53.10645 | -0.22969 | 142° | 5km/h | 23670m | 5.7m/s | -51.1°C | 3.5% | 0hPa | 2.5V | 08:30:00 | 01:49:42 | 00:00:00 | |
| DB0UT-7 | 2026-09-01 00:40:03 | 53.10646 | -0.22955 | 88° | 15km/h | 23705m | 5.6m/s | -51.1°C | 3.5% | 0hPa | 2.5V | 00:00:00 | 01:49:48 | 00:00:00 | |
| DM0DOS-11 | 2026-09-01 00:39:51 | 53.10649 | -0.23001 | 69° | 13km/h | 23620m | 5.4m/s | -51.4°C | 3.5% | 0hPa | 2.6V | 08:30:00 | 01:49:33 | 00:00:00 | |
| DJ2DS-15 | 2026-09-01 00:39:48 | 53.10649 | -0.23001 | 69° | 13km/h | 23621m | 5.4m/s | -51.4°C | 0.8% | -1.0hPa | 2.6V | 00:00:00 | 00:00:00 | 00:00:00 | |
| DJ2DS-15 | 2026-09-01 00:39:44 | 53.10646 | -0.23019 | 92° | 16km/h | 23600m | 4.2m/s | -51.3°C | 3.5% | 0hPa | 2.6V | 00:00:00 | 01:49:29 | 08:30:00 | |
| DM0DOS-11 | 2026-09-01 00:39:40 | 53.10645 | -0.23051 | 86° | 13km/h | 23566m | 5m/s | -51.4°C | 3.6% | 0hPa | 2.6V | 08:30:00 | 01:49:23 | 00:00:00 | |
| DM0DOS-11 | 2026-09-01 00:39:30 | 53.10642 | -0.23133 | 98° | 20km/h | 23512m | 5.5m/s | -51°C | 3.5% | 0hPa | 2.5V | 08:30:00 | 01:49:13 | 00:00:00 | |
| DJ2DS-15 | 2026-09-01 00:39:24 | 53.10642 | -0.23155 | 51° | 13km/h | 23489m | 5.3m/s | -50.9°C | 3.4% | 0hPa | 2.5V | 00:00:00 | 01:49:09 | 00:00:00 | |
| DB0UT-7 | 2026-09-01 00:39:23 | 53.10641 | -0.23157 | 43° | 11km/h | 23484m | 4.8m/s | -50.9°C | 3.5% | 0hPa | 2.5V | 00:00:00 | 00:00:00 | 00:00:00 | |
| DM0DOS-11 | 2026-09-01 00:39:20 | 53.10640 | -0.23178 | 93° | 18km/h | 23456m | 4.7m/s | -50.9°C | 3.4% | 0hPa | 2.5V | 08:30:00 | 01:49:03 | 00:00:00 | |
| DM0DOS-11 | 2026-09-01 00:39:09 | 53.10658 | -0.23244 | 126° | 9km/h | 23403m | 4.2m/s | -50.9°C | 3.4% | 0hPa | 2.5V | 08:30:00 | 01:48:53 | 00:00:00 | |
| DJ2DS-15 | 2026-09-01 00:39:04 | 53.10658 | -0.23261 | 70° | 15km/h | 23382m | 5.0m/s | -50.8°C | 3.4% | 0hPa | 2.6V | 00:00:00 | 01:48:49 | 00:00:00 | |
| DM0DOS-11 | 2026-09-01 00:38:59 | 53.10662 | -0.23294 | 120° | 16km/h | 23350m | 4.3m/s | -51°C | 3.4% | 0hPa | 2.6V | 08:30:00 | 01:48:43 | 00:00:00 | |
| DM0DOS-11 | 2026-09-01 00:38:53 | 53.10653 | -0.23325 | 36° | 13km/h | 23298m | 4.5m/s | -51.2°C | 3.4% | 0hPa | 2.5V | 08:30:00 | 01:48:33 | 00:00:00 | |
| DJ2DS-15 | 2026-09-01 00:38:44 | 53.10645 | -0.23352 | 84° | 15km/h | 23276m | 5.4m/s | -51.2°C | 3.4% | 0hPa | 2.5V | 00:00:00 | 01:48:29 | 00:00:00 | |
| DM0DOS-11 | 2026-09-01 00:38:43 | 53.10640 | -0.23386 | 38° | 15km/h | 23244m | 5m/s | -51.3°C | 3.4% | 0hPa | 2.5V | 08:30:00 | 01:48:23 | 00:00:00 | |
| DM0DOS-11 | 2026-09-01 00:38:33 | 53.10611 | -0.23430 | 57° | 15km/h | 23188m | 4.9m/s | -51.5°C | 3.5% | 0hPa | 2.6V | 08:30:00 | 01:48:13 | 00:00:00 | |
| DB0UT-7 | 2026-09-01 00:38:28 | 53.10611 | -0.23430 | 58° | 11km/h | 23189m | 4.8m/s | -51.5°C | 3.5% | 0hPa | 2.6V | 00:00:00 | 01:48:13 | 00:00:00 | |
| DJ2DS-15 | 2026-09-01 00:38:24 | 53.10601 | -0.23438 | 346° | 15km/h | 23168m | 4.4m/s | -51.4°C | 3.5% | 0hPa | 2.6V | 00:00:00 | 01:48:09 | 00:00:00 | |
| DM0DOS-11 | 2026-09-01 00:38:23 | 53.10574 | -0.23437 | 0° | 13km/h | 23137m | 5.6m/s | -51.5°C | 3.6% | 0hPa | 2.6V | 08:30:00 | 01:48:03 | 00:00:00 | |
| DM0DOS-11 | 2026-09-01 00:38:12 | 53.10551 | -0.23433 | 354° | 18km/h | 23086m | 4.6m/s | -51.3°C | 3.5% | 0hPa | 2.5V | 08:30:00 | 01:47:53 | 00:00:00 | |
| DJ2DS-15 | 2026-09-01 00:38:04 | 53.10534 | -0.23431 | 355° | 9km/h | 23065m | 5.0m/s | -51.2°C | 3.5% | 0hPa | 2.5V | 00:00:00 | 01:47:49 | 00:00:00 | |
| DM0DOS-11 | 2026-09-01 00:38:01 | 53.10520 | -0.23439 | 47° | 5km/h | 23033m | 5.2m/s | -51.2°C | 3.5% | 0hPa | 2.5V | 08:30:00 | 01:47:43 | 00:00:00 | |
| DM0DOS-11 | 2026-09-01 00:37:51 | 53.10503 | -0.23450 | 28° | 11km/h | 22979m | 6.2m/s | -51.1°C | 3.5% | 0hPa | 2.5V | 08:30:00 | 01:47:33 | 00:00:00 | |
| DJ2DS-15 | 2026-09-01 00:37:44 | 53.10491 | -0.23462 | 32° | 13km/h | 22958m | 4.0m/s | -51.0°C | 3.4% | 0hPa | 2.6V | 00:00:00 | 01:47:29 | 00:00:00 | |
| BIOWL1-15 | 2026-09-01 00:37:42 | 53.10443 | -0.23518 | 44° | 5km/h | 22858m | 5.4m/s | -51.1°C | 0% | 0hPa | 2.6V | 18:12:15 | 01:47:10 | 00:00:00 | |
| DM0DOS-11 | 2026-09-01 00:37:41 | 53.10473 | -0.23473 | 31° | 15km/h | 22927m | 5.3m/s | -51.2°C | 3.4% | 0hPa | 2.6V | 08:30:00 | 01:47:23 | 00:00:00 | |
| DB0UT-7 | 2026-09-01 00:37:40 | 53.10479 | -0.23469 | 10° | 7km/h | 22939m | 4.3m/s | -51.1°C | 3.4% | 0hPa | 2.5V | 00:00:00 | 00:00:00 | 08:30:00 | |
| BIOWL9-15 | 2026-09-01 00:37:39 | 53.10450 | -0.23505 | 40° | 9km/h | 22885m | 5.9m/s | -51.2°C | 0.8% | -1.0hPa | 2.5V | 00:00:00 | 00:00:00 | 00:00:00 | |
| DM0DOS-11 | 2026-09-01 00:37:31 | 53.10447 | -0.23510 | 50° | 7km/h | 22874m | 6.1m/s | -51.1°C | 3.4% | 0hPa | 2.5V | 08:30:00 | 01:47:13 | 00:00:00 | |
| BIOWL1-15 | 2026-09-01 00:37:21 | 53.10440 | -0.23516 | 353° | 4km/h | 22831m | 4.7m/s | -51°C | 0% | 0hPa | 2.6V | 18:12:15 | 01:47:05 | 00:00:00 | |
| DM0DOS-11 | 2026-09-01 00:37:21 | 53.10438 | -0.23515 | 345° | 4km/h | 22820m | 4.6m/s | -51°C | 3.4% | 0hPa | 2.5V | 08:30:00 | 01:47:03 | 00:00:00 | |
| DM0DOS-11 | 2026-09-01 00:37:11 | 53.10429 | -0.23539 | 156° | 2km/h | 22766m | 6.1m/s | -51.3°C | 3.5% | 0hPa | 2.6V | 08:30:00 | 01:46:53 | 00:00:00 | |
| BIOWL1-15 | 2026-09-01 00:37:11 | 53.10434 | -0.23566 | 108° | 16km/h | 22725m | 4.4m/s | -51.2°C | 0.1% | 0hPa | 2.5V | 18:12:15 | 01:46:45 | 00:00:00 | |
| BIOWL9-15 | 2026-09-01 00:37:08 | 53.10430 | -0.23539 | 203° | 4km/h | 22761m | 3.9m/s | -51.3°C | 0.8% | -1.0hPa | 2.6V | 00:00:00 | 00:00:00 | 00:00:00 | |
| DB0UT-7 | 2026-09-01 00:37:07 | 53.10430 | -0.23539 | 204° | 15km/h | 22761m | 3.9m/s | -51.3°C | 3.5% | 0hPa | 2.6V | 00:00:00 | 01:46:52 | 00:00:00 | |
| DJ2DS-15 | 2026-09-01 00:37:04 | 53.10432 | -0.23542 | 97° | 15km/h | 22747m | 5.0m/s | -51.3°C | 3.5% | 0hPa | 2.6V | 00:00:00 | 01:46:49 | 00:00:00 | |
| DM0DOS-11 | 2026-09-01 00:37:01 | 53.10436 | -0.23579 | 98° | 16km/h | 22714m | 5.7m/s | -51.2°C | 3.4% | 0hPa | 2.6V | 08:30:00 | 01:46:43 | 00:00:00 | |
| BIOWL1-15 | 2026-09-01 00:36:55 | 53.10435 | -0.23621 | 66° | 13km/h | 22666m | 4.8m/s | -51.2°C | 0% | 0hPa | 2.5V | 18:12:15 | 01:46:34 | 00:00:00 | |
| DM0DOS-11 | 2026-09-01 00:36:51 | 53.10433 | -0.23627 | 72° | 15km/h | 22661m | 4.2m/s | -51.2°C | 3.4% | 0hPa | 2.5V | 08:30:00 | 01:46:33 | 00:00:00 | |
| DJ2DS-15 | 2026-09-01 00:36:48 | 53.10432 | -0.23633 | 73° | 16km/h | 22656m | 5.5m/s | -51.3°C | -1.0% | -1.0hPa | 2.5V | 00:00:00 | 00:00:00 | 00:00:00 | |
| DJ2DS-15 | 2026-09-01 00:36:43 | 53.10430 | -0.23667 | 92° | 20km/h | 22633m | 5.1m/s | -51.5°C | 3.4% | 0hPa | 2.5V | 00:00:00 | 01:46:28 | 08:30:00 | |
| DM0DOS-11 | 2026-09-01 00:36:41 | 53.10422 | -0.23699 | 30° | 18km/h | 22607m | 6.4m/s | -51.5°C | 3.4% | 0hPa | 2.5V | 08:30:00 | 01:46:23 | 00:00:00 | |
| BIOWL1-15 | 2026-09-01 00:36:39 | 53.10422 | -0.23699 | 30° | 18km/h | 22607m | 6.4m/s | -51.5°C | 0.1% | 0hPa | 2.5V | 18:12:15 | 01:46:23 | 00:00:00 | |
| BIOWL1-15 | 2026-09-01 00:36:28 | 53.10376 | -0.23804 | 46° | 22km/h | 22531m | 5.7m/s | -52°C | 0.1% | 0hPa | 2.6V | 18:12:15 | 01:46:08 | 00:00:00 | |
| DJ2DS-15 | 2026-09-01 00:36:23 | 53.10376 | -0.23804 | 47° | 22km/h | 22531m | 5.6m/s | -52.0°C | 3.6% | 0hPa | 2.6V | 00:00:00 | 01:46:08 | 00:00:00 | |
| DM0DOS-11 | 2026-09-01 00:36:21 | 53.10357 | -0.23838 | 46° | 20km/h | 22504m | 5m/s | -52.2°C | 3.6% | 0hPa | 2.6V | 08:30:00 | 01:46:03 | 00:00:00 | |
| BIOWL1-15 | 2026-09-01 00:36:17 | 53.10330 | -0.23870 | 29° | 16km/h | 22473m | 4.6m/s | -52.4°C | 0.2% | 0hPa | 2.6V | 18:12:15 | 01:45:57 | 00:00:00 | |
| DM0DOS-11 | 2026-09-01 00:36:11 | 53.10315 | -0.23892 | 42° | 22km/h | 22453m | 4.3m/s | -52.3°C | 3.7% | 0hPa | 2.5V | 08:30:00 | 01:45:53 | 00:00:00 | |
| BIOWL1-15 | 2026-09-01 00:36:05 | 53.10302 | -0.23909 | 44° | 22km/h | 22437m | 5.1m/s | -52.3°C | 0.2% | 0hPa | 2.6V | 18:12:15 | 01:45:50 | 00:00:00 | |
| DJ2DS-15 | 2026-09-01 00:36:03 | 53.10294 | -0.23924 | 52° | 18km/h | 22427m | 4.3m/s | -52.2°C | 3.7% | 0hPa | 2.6V | 00:00:00 | 01:45:48 | 00:00:00 | |
| DM0DOS-11 | 2026-09-01 00:36:01 | 53.10277 | -0.23952 | 25° | 16km/h | 22401m | 5.4m/s | -52.2°C | 3.7% | 0hPa | 2.6V | 08:30:00 | 01:45:43 | 00:00:00 | |
| BIOWL1-15 | 2026-09-01 00:35:57 | 53.10229 | -0.24006 | 14° | 15km/h | 22328m | 4.4m/s | -52°C | 0.2% | 0hPa | 2.5V | 18:12:15 | 01:45:29 | 00:00:00 | |
| DM0DOS-11 | 2026-09-01 00:35:50 | 53.10240 | -0.23997 | 37° | 15km/h | 22349m | 6.2m/s | -52°C | 3.6% | 0hPa | 2.6V | 08:30:00 | 01:45:33 | 00:00:00 | |
| DJ2DS-15 | 2026-09-01 00:35:43 | 53.10225 | -0.24007 | 10° | 13km/h | 22323m | 5.4m/s | -52.0°C | 3.6% | 0hPa | 2.5V | 00:00:00 | 01:45:28 | 00:00:00 | |
| DM0DOS-11 | 2026-09-01 00:35:42 | 53.10211 | -0.24017 | 44° | 15km/h | 22296m | 5.4m/s | -51.9°C | 3.6% | 0hPa | 2.5V | 08:30:00 | 01:45:23 | 00:00:00 | |
| BIOWL1-15 | 2026-09-01 00:35:40 | 53.10211 | -0.24017 | 44° | 15km/h | 22296m | 5.4m/s | -51.9°C | 0.1% | 0hPa | 2.5V | 18:12:15 | 01:45:23 | 00:00:00 | |
| DB0UT-7 | 2026-09-01 00:35:37 | 53.10209 | -0.24022 | 57° | 11km/h | 22290m | 5.8m/s | -51.8°C | 3.6% | 0hPa | 2.5V | 00:00:00 | 00:00:00 | 00:00:00 | |
| BIOWL9-15 | 2026-09-01 00:35:35 | 53.10203 | -0.24039 | 57° | 18km/h | 22274m | 5.1m/s | -51.9°C | 0.8% | -1.0hPa | 2.5V | 00:00:00 | 00:00:00 | 00:00:00 | |
| DM0DOS-11 | 2026-09-01 00:35:30 | 53.10195 | -0.24063 | 15° | 5km/h | 22244m | 5.7m/s | -51.9°C | 3.6% | 0hPa | 2.5V | 08:30:00 | 01:45:13 | 00:00:00 | |
| BIOWL1-15 | 2026-09-01 00:35:27 | 53.10167 | -0.24085 | 322° | 11km/h | 22175m | 4.9m/s | -51.9°C | 0.1% | 0hPa | 2.5V | 18:12:15 | 01:45:00 | 00:00:00 | |
| BIOWL1-15 | 2026-09-01 00:35:15 | 53.10158 | -0.24066 | 320° | 11km/h | 22148m | 6.3m/s | -51.9°C | 0.1% | 0hPa | 2.6V | 18:12:15 | 01:44:55 | 00:00:00 | |
| DM0DOS-11 | 2026-09-01 00:35:12 | 53.10154 | -0.24063 | 10° | 5km/h | 22139m | 3.8m/s | -51.9°C | 3.6% | 0hPa | 2.5V | 08:30:00 | 01:44:53 | 00:00:00 | |
| BIOWL1-15 | 2026-09-01 00:35:03 | 53.10159 | -0.24072 | 98° | 2km/h | 22107m | 5m/s | -52.1°C | 0.2% | 0hPa | 2.5V | 18:12:15 | 01:44:47 | 00:00:00 | |
| DM0DOS-11 | 2026-09-01 00:35:00 | 53.10161 | -0.24066 | 236° | 9km/h | 22088m | 4.5m/s | -52.1°C | 3.6% | 0hPa | 2.6V | 08:30:00 | 01:44:43 | 00:00:00 | |
| DM0DOS-11 | 2026-09-01 00:34:53 | 53.10176 | -0.24048 | 156° | 9km/h | 22036m | 4.8m/s | -51.9°C | 3.6% | 0hPa | 2.6V | 08:30:00 | 01:44:33 | 00:00:00 | |
| BIOWL1-15 | 2026-09-01 00:34:52 | 53.10170 | -0.24047 | 205° | 9km/h | 22052m | 5.1m/s | 0°C | 0% | 0hPa | 2.5V | 18:12:15 | 01:44:36 | 00:00:00 | |
| DJ2DS-15 | 2026-09-01 00:34:43 | 53.10189 | -0.24054 | 143° | 9km/h | 22010m | 4.8m/s | -51.6°C | 3.5% | 0hPa | 2.5V | 00:00:00 | 01:44:28 | 00:00:00 | |
| DM0DOS-11 | 2026-09-01 00:34:42 | 53.10197 | -0.24056 | 167° | 5km/h | 21984m | 5.6m/s | -51.6°C | 3.5% | 0hPa | 2.5V | 08:30:00 | 01:44:23 | 00:00:00 | |
| DB0UT-7 | 2026-09-01 00:34:37 | 53.10199 | -0.24057 | 159° | 13km/h | 21979m | 4.5m/s | -51.6°C | 3.5% | 0hPa | 2.5V | 00:00:00 | 00:00:00 | 00:00:00 | |
| DM0DOS-11 | 2026-09-01 00:34:29 | 53.10220 | -0.24064 | 146° | 15km/h | 21932m | 5.3m/s | -51.7°C | 3.5% | 0hPa | 2.5V | 08:30:00 | 01:44:13 | 00:00:00 | |
| DM0DOS-11 | 2026-09-01 00:34:24 | 53.10239 | -0.24099 | 137° | 16km/h | 21879m | 5.4m/s | -52°C | 3.6% | 0hPa | 2.6V | 08:30:00 | 01:44:03 | 00:00:00 | |
| DJ2DS-15 | 2026-09-01 00:34:22 | 53.10232 | -0.24083 | 137° | 18km/h | 21900m | 4.5m/s | -51.9°C | 3.6% | 0hPa | 2.5V | 00:00:00 | 01:44:07 | 00:00:00 | |
| DM0DOS-11 | 2026-09-01 00:34:13 | 53.10269 | -0.24165 | 98° | 18km/h | 21826m | 5.3m/s | -52.1°C | 3.6% | 0hPa | 2.5V | 08:30:00 | 01:43:53 | 00:00:00 | |
| DB0UT-7 | 2026-09-01 00:34:07 | 53.10269 | -0.24172 | 98° | 20km/h | 21821m | 4.4m/s | -52.1°C | 3.6% | 0hPa | 2.6V | 00:00:00 | 01:43:52 | 00:00:00 | |
| DM0DOS-11 | 2026-09-01 00:34:03 | 53.10277 | -0.24234 | 97° | 16km/h | 21773m | 5.9m/s | -52°C | 3.6% | 0hPa | 2.6V | 08:30:00 | 01:43:43 | 00:00:00 | |
| DJ2DS-15 | 2026-09-01 00:34:02 | 53.10273 | -0.24208 | 98° | 20km/h | 21794m | 4.1m/s | -52.0°C | 3.6% | 0hPa | 2.6V | 00:00:00 | 01:43:47 | 00:00:00 | |
| DM0DOS-11 | 2026-09-01 00:33:53 | 53.10285 | -0.24323 | 117° | 20km/h | 21720m | 4.4m/s | -52°C | 3.6% | 0hPa | 2.6V | 08:30:00 | 01:43:33 | 00:00:00 | |
| DM0DOS-11 | 2026-09-01 00:33:43 | 53.10299 | -0.24417 | 86° | 26km/h | 21668m | 5.4m/s | -52.1°C | 3.6% | 0hPa | 2.5V | 08:30:00 | 01:43:23 | 00:00:00 | |
| DJ2DS-15 | 2026-09-01 00:33:42 | 53.10296 | -0.24378 | 103° | 27km/h | 21690m | 6.2m/s | -52.0°C | 3.6% | 0hPa | 2.6V | 00:00:00 | 01:43:27 | 08:30:00 | |
| DB0UT-7 | 2026-09-01 00:33:37 | 53.10299 | -0.24427 | 88° | 31km/h | 21663m | 5.0m/s | 0°C | 0% | 0hPa | 2.6V | 00:00:00 | 00:00:00 | 00:00:00 | |
| DM0DOS-11 | 2026-09-01 00:33:33 | 53.10306 | -0.24529 | 99° | 33km/h | 21615m | 5.8m/s | -52.1°C | 3.6% | 0hPa | 2.6V | 08:30:00 | 01:43:13 | 00:00:00 | |
| DM0DOS-11 | 2026-09-01 00:33:23 | 53.10305 | -0.24660 | 87° | 33km/h | 21562m | 4.4m/s | -52.4°C | 3.8% | 0hPa | 2.5V | 08:30:00 | 01:43:03 | 00:00:00 | |
| DJ2DS-15 | 2026-09-01 00:33:22 | 53.10308 | -0.24606 | 87° | 35km/h | 21584m | 5.9m/s | -52.2°C | 3.7% | 0hPa | 2.5V | 00:00:00 | 01:43:07 | 00:00:00 | |
| DM0DOS-11 | 2026-09-01 00:33:13 | 53.10303 | -0.24807 | 77° | 35km/h | 21511m | 4.3m/s | -52.3°C | 3.7% | 0hPa | 2.5V | 08:30:00 | 01:42:53 | 00:00:00 | |
| DB0UT-7 | 2026-09-01 00:33:07 | 53.10300 | -0.24821 | 74° | 35km/h | 21505m | 6.3m/s | 0°C | 0% | 0hPa | 2.6V | 00:00:00 | 01:42:52 | 08:30:00 | |
| DM0DOS-11 | 2026-09-01 00:33:03 | 53.10278 | -0.24942 | 83° | 33km/h | 21459m | 5.7m/s | -52°C | 3.6% | 0hPa | 2.6V | 08:30:00 | 01:42:43 | 00:00:00 | |
| BIOWL1-15 | 2026-09-01 00:32:55 | 53.10275 | -0.24986 | 83° | 35km/h | 21443m | 6.1m/s | -52°C | 0.1% | 0hPa | 2.5V | 18:12:15 | 01:42:40 | 00:00:00 | |
| DM0DOS-11 | 2026-09-01 00:32:53 | 53.10256 | -0.25073 | 61° | 27km/h | 21405m | 4.2m/s | -51.9°C | 3.6% | 0hPa | 2.5V | 08:30:00 | 01:42:33 | 00:00:00 | |
| BIOWL1-15 | 2026-09-01 00:32:44 | 53.10244 | -0.25118 | 71° | 27km/h | 21385m | 6m/s | -51.8°C | 0.2% | 0hPa | 2.6V | 18:12:15 | 01:42:29 | 00:00:00 | |
| DM0DOS-11 | 2026-09-01 00:32:43 | 53.10228 | -0.25186 | 65° | 29km/h | 21354m | 6.1m/s | -51.8°C | 3.5% | 0hPa | 2.6V | 08:30:00 | 01:42:23 | 00:00:00 | |
| DJ2DS-15 | 2026-09-01 00:32:42 | 53.10239 | -0.25139 | 71° | 29km/h | 21375m | 4.0m/s | -51.7°C | 3.6% | 0hPa | 2.5V | 00:00:00 | 01:42:27 | 00:00:00 | |
| BIOWL1-15 | 2026-09-01 00:32:34 | 53.10158 | -0.25364 | 52° | 22km/h | 21261m | 5.6m/s | -52.1°C | 0.2% | 0hPa | 2.6V | 18:12:15 | 01:42:05 | 00:00:00 | |
| DM0DOS-11 | 2026-09-01 00:32:33 | 53.10189 | -0.25292 | 56° | 29km/h | 21302m | 4.8m/s | -51.7°C | 3.5% | 0hPa | 2.6V | 08:30:00 | 01:42:13 | 00:00:00 | |
| BIOWL9-15 | 2026-09-01 00:32:28 | 53.10189 | -0.25292 | 56° | 29km/h | 21302m | 4.8m/s | -51.7°C | 0.9% | -1.0hPa | 2.6V | 00:00:00 | 00:00:00 | 00:00:00 | |
| DM0DOS-11 | 2026-09-01 00:32:22 | 53.10151 | -0.25377 | 49° | 22km/h | 21250m | 5.3m/s | -52.2°C | 3.6% | 0hPa | 2.6V | 08:30:00 | 01:42:03 | 00:00:00 | |
| BIOWL1-15 | 2026-09-01 00:32:18 | 53.10111 | -0.25431 | 32° | 26km/h | 21209m | 5m/s | -52.5°C | 0.2% | 0hPa | 2.5V | 18:12:15 | 01:41:55 | 00:00:00 | |
| DM0DOS-11 | 2026-09-01 00:32:09 | 53.10094 | -0.25443 | 19° | 27km/h | 21194m | 5.2m/s | -52.5°C | 3.7% | 0hPa | 2.6V | 08:30:00 | 01:41:52 | 00:00:00 | |
| BIOWL1-15 | 2026-09-01 00:32:05 | 53.10081 | -0.25452 | 24° | 29km/h | 21184m | 4.3m/s | -52.5°C | 0.2% | 0hPa | 2.5V | 18:12:15 | 01:41:50 | 00:00:00 | |
| BIOWL1-15 | 2026-09-01 00:31:57 | 53.10001 | -0.25504 | 22° | 16km/h | 21106m | 4.2m/s | -52.1°C | 0.3% | 0hPa | 2.5V | 18:12:15 | 01:41:35 | 00:00:00 | |
| DM0DOS-11 | 2026-09-01 00:31:48 | 53.09991 | -0.25515 | 40° | 15km/h | 21091m | 4.2m/s | -52°C | 3.7% | 0hPa | 2.6V | 08:30:00 | 01:41:32 | 00:00:00 | |
| BIOWL1-15 | 2026-09-01 00:31:43 | 53.09970 | -0.25537 | 40° | 20km/h | 21060m | 5.5m/s | -51.7°C | 0.2% | 0hPa | 2.6V | 18:12:15 | 01:41:26 | 00:00:00 | |
| DJ2DS-15 | 2026-09-01 00:31:41 | 53.09970 | -0.25537 | 41° | 16km/h | 21060m | 5.4m/s | -51.7°C | 3.6% | 0hPa | 2.6V | 00:00:00 | 01:41:26 | 00:00:00 | |
| DM0DOS-11 | 2026-09-01 00:31:38 | 53.09958 | -0.25557 | 62° | 16km/h | 21039m | 6.4m/s | -51.5°C | 3.6% | 0hPa | 2.5V | 08:30:00 | 01:41:22 | 00:00:00 | |
| BIOWL1-15 | 2026-09-01 00:31:30 | 53.09947 | -0.25594 | 70° | 16km/h | 21000m | 4.4m/s | -51.2°C | 0.1% | 0hPa | 2.5V | 18:12:15 | 01:41:15 | 00:00:00 | |
| DM0DOS-11 | 2026-09-01 00:31:28 | 53.09941 | -0.25611 | 45° | 15km/h | 20985m | 4.6m/s | -51.1°C | 3.4% | 0hPa | 2.6V | 08:30:00 | 01:41:12 | 00:00:00 | |
| BIOWL1-15 | 2026-09-01 00:31:19 | 53.09918 | -0.25686 | 67° | 20km/h | 20920m | 5.6m/s | -51.2°C | 0% | 0hPa | 2.6V | 18:12:15 | 01:41:00 | 00:00:00 | |
| DM0DOS-11 | 2026-09-01 00:31:08 | 53.09910 | -0.25755 | 89° | 26km/h | 20878m | 4.6m/s | -51.6°C | 3.5% | 0hPa | 2.6V | 08:30:00 | 01:40:52 | 00:00:00 | |
| BIOWL1-15 | 2026-09-01 00:31:05 | 53.09911 | -0.25817 | 97° | 29km/h | 20847m | 4.1m/s | -52°C | 0.2% | 0hPa | 2.6V | 18:12:15 | 01:40:46 | 00:00:00 | |
| DM0DOS-11 | 2026-09-01 00:31:03 | 53.09917 | -0.25864 | 104° | 31km/h | 20827m | 5.8m/s | -52.1°C | 3.6% | 0hPa | 2.5V | 08:30:00 | 01:40:42 | 00:00:00 | |
| BIOWL1-15 | 2026-09-01 00:30:56 | 53.09917 | -0.25988 | 77° | 37km/h | 20780m | 5.7m/s | -51.9°C | 0.2% | 0hPa | 2.6V | 18:12:15 | 01:40:33 | 00:00:00 | |
| DM0DOS-11 | 2026-09-01 00:30:52 | 53.09915 | -0.26002 | 74° | 35km/h | 20774m | 5.5m/s | -51.9°C | 3.6% | 0hPa | 2.5V | 08:30:00 | 01:40:32 | 00:00:00 | |
| DM0DOS-11 | 2026-09-01 00:30:42 | 53.09905 | -0.26137 | 76° | 33km/h | 20722m | 4.7m/s | -51.8°C | 3.7% | 0hPa | 2.6V | 08:30:00 | 01:40:22 | 00:00:00 | |
| BIOWL1-15 | 2026-09-01 00:30:37 | 53.09901 | -0.26162 | 75° | 29km/h | 20712m | 4.7m/s | -51.7°C | 0.2% | 0hPa | 2.7V | 18:12:15 | 01:40:20 | 00:00:00 | |
| DM0DOS-11 | 2026-09-01 00:30:32 | 53.09887 | -0.26264 | 75° | 33km/h | 20671m | 4.6m/s | -51.5°C | 3.6% | 0hPa | 2.6V | 08:30:00 | 01:40:12 | 00:00:00 | |
| BIOWL1-15 | 2026-09-01 00:30:29 | 53.09868 | -0.26362 | 77° | 29km/h | 20629m | 4.6m/s | -51.4°C | 0.2% | 0hPa | 2.5V | 18:12:15 | 01:40:04 | 00:00:00 | |
| DM0DOS-11 | 2026-09-01 00:30:22 | 53.09865 | -0.26386 | 80° | 31km/h | 20619m | 4.2m/s | -51.4°C | 3.5% | 0hPa | 2.5V | 08:30:00 | 01:40:02 | 00:00:00 | |
| BIOWL1-15 | 2026-09-01 00:30:18 | 53.09841 | -0.26498 | 63° | 27km/h | 20570m | 5.5m/s | -51.3°C | 0.1% | 0hPa | 2.7V | 18:12:15 | 01:39:52 | 00:00:00 | |
| DM0DOS-11 | 2026-09-01 00:30:01 | 53.09808 | -0.26587 | 46° | 31km/h | 20524m | 6.2m/s | -51.2°C | 3.4% | 0hPa | 2.5V | 08:30:00 | 01:39:43 | 00:00:00 | |
| BIOWL1-15 | 2026-09-01 00:29:58 | 53.09760 | -0.26676 | 49° | 27km/h | 20473m | 4m/s | -51.6°C | 0.1% | 0hPa | 2.6V | 18:12:15 | 01:39:33 | 00:00:00 | |
| DM0DOS-11 | 2026-09-01 00:29:53 | 53.09760 | -0.26676 | 48° | 27km/h | 20473m | 4m/s | -51.6°C | 3.6% | 0hPa | 2.6V | 08:30:00 | 01:39:33 | 00:00:00 | |
| DM0DOS-11 | 2026-09-01 00:29:43 | 53.09702 | -0.26741 | 47° | 22km/h | 20422m | 5.6m/s | -51.5°C | 3.6% | 0hPa | 2.6V | 08:30:00 | 01:39:23 | 00:00:00 | |
| BIOWL1-15 | 2026-09-01 00:29:37 | 53.09696 | -0.26754 | 54° | 16km/h | 20411m | 5.8m/s | -51.4°C | 0.2% | 0hPa | 2.5V | 18:12:15 | 01:39:21 | 00:00:00 | |
| DM0DOS-11 | 2026-09-01 00:29:28 | 53.09646 | -0.26816 | 48° | 16km/h | 20343m | 5.4m/s | -51.1°C | 3.5% | 0hPa | 2.5V | 08:30:00 | 01:39:08 | 00:00:00 | |
| BIOWL1-15 | 2026-09-01 00:29:27 | 53.09649 | -0.26810 | 45° | 20km/h | 20349m | 6.2m/s | -51.1°C | 0.1% | 0hPa | 2.6V | 18:12:15 | 01:39:09 | 00:00:00 | |
| BIOWL1-15 | 2026-09-01 00:29:15 | 53.09612 | -0.26892 | 65° | 18km/h | 20269m | 5.7m/s | -51.1°C | 0.1% | 0hPa | 2.5V | 18:12:15 | 01:38:54 | 00:00:00 | |
| BIOWL1-15 | 2026-09-01 00:29:05 | 53.09601 | -0.26954 | 61° | 15km/h | 20216m | 5.4m/s | -51.1°C | 0.1% | 0hPa | 2.6V | 18:12:15 | 01:38:44 | 00:00:00 | |
| BIOWL1-15 | 2026-09-01 00:28:57 | 53.09592 | -0.26979 | 59° | 15km/h | 20195m | 4.9m/s | 0°C | 0% | 0hPa | 2.5V | 18:12:15 | 01:38:40 | 00:00:00 | |
| BIOWL1-15 | 2026-09-01 00:28:42 | 53.09579 | -0.27078 | 64° | 24km/h | 20127m | 6m/s | 0°C | 0% | 0hPa | 2.7V | 18:12:15 | 01:38:27 | 00:00:00 | |
| BIOWL1-15 | 2026-09-01 00:28:30 | 53.09547 | -0.27229 | 67° | 27km/h | 20052m | 4.1m/s | 0°C | 0% | 0hPa | 2.5V | 18:12:15 | 01:38:12 | 00:00:00 | |
| BIOWL1-15 | 2026-09-01 00:28:18 | 53.09510 | -0.27364 | 69° | 26km/h | 19985m | 4.5m/s | 0°C | 0% | 0hPa | 2.6V | 18:12:15 | 01:37:59 | 00:00:00 | |
| BIOWL1-15 | 2026-09-01 00:27:52 | 53.09437 | -0.27539 | 28° | 27km/h | 19860m | 5.3m/s | 0°C | 0% | 0hPa | 2.6V | 18:12:15 | 01:37:35 | 00:00:00 | |
| DJ2DS-15 | 2026-09-01 00:27:42 | 53.09404 | -0.27597 | 59° | 26km/h | 19814m | 5.6m/s | -50.3°C | 3.4% | 0hPa | 2.7V | 00:00:00 | 01:37:26 | 08:30:00 | |
| DJ2DS-15 | 2026-09-01 00:27:21 | 53.09324 | -0.27769 | 55° | 27km/h | 19708m | 4.9m/s | -49.7°C | 3.3% | 0hPa | 2.6V | 00:00:00 | 01:37:06 | 00:00:00 | |
| DM0DOS-11 | 2026-09-01 00:27:04 | 53.09271 | -0.27985 | 75° | 26km/h | 19595m | 5.2m/s | -50.2°C | 3.3% | 0hPa | 2.6V | 08:30:00 | 01:36:45 | 00:00:00 | |
| DJ2DS-15 | 2026-09-01 00:27:01 | 53.09273 | -0.27975 | 75° | 29km/h | 19601m | 5.6m/s | -50.1°C | 3.3% | 0hPa | 2.7V | 00:00:00 | 01:36:46 | 00:00:00 | |
| DM0DOS-11 | 2026-09-01 00:26:54 | 53.09245 | -0.28089 | 68° | 31km/h | 19543m | 5.7m/s | -49.9°C | 3.2% | 0hPa | 2.7V | 08:30:00 | 01:36:35 | 00:00:00 | |
| DM0DOS-11 | 2026-09-01 00:26:44 | 53.09214 | -0.28217 | 59° | 33km/h | 19493m | 4.6m/s | -50.6°C | 3.4% | 0hPa | 2.6V | 08:30:00 | 01:36:25 | 00:00:00 | |
| BIOWL1-15 | 2026-09-01 00:26:35 | 53.09156 | -0.28401 | 57° | 33km/h | 19430m | 4.9m/s | 0°C | 0% | 0hPa | 2.6V | 18:12:15 | 01:36:12 | 00:00:00 | |
| DM0DOS-11 | 2026-09-01 00:26:33 | 53.09166 | -0.28378 | 55° | 35km/h | 19441m | 5.2m/s | -50.6°C | 3.4% | 0hPa | 2.7V | 08:30:00 | 01:36:14 | 00:00:00 | |
| DM0DOS-11 | 2026-09-01 00:26:23 | 53.09119 | -0.28500 | 62° | 37km/h | 19394m | 4.9m/s | -50.3°C | 3.4% | 0hPa | 2.6V | 08:30:00 | 01:36:04 | 00:00:00 | |
| DJ2DS-15 | 2026-09-01 00:26:21 | 53.09127 | -0.28472 | 66° | 33km/h | 19403m | 3.4m/s | -50.3°C | 3.4% | 0hPa | 2.7V | 00:00:00 | 01:36:06 | 00:00:00 | |
| DM0DOS-11 | 2026-09-01 00:26:13 | 53.09072 | -0.28615 | 51° | 33km/h | 19345m | 5.5m/s | -50°C | 3.3% | 0hPa | 2.7V | 08:30:00 | 01:35:54 | 00:00:00 | |
| BIOWL1-15 | 2026-09-01 00:26:09 | 53.09073 | -0.28615 | 52° | 33km/h | 19345m | 5.5m/s | 0°C | 0% | 0hPa | 2.7V | 18:12:15 | 01:35:54 | 00:00:00 | |
| DM0DOS-11 | 2026-09-01 00:26:03 | 53.09030 | -0.28714 | 48° | 27km/h | 19300m | 3.9m/s | -50.1°C | 3.4% | 0hPa | 2.6V | 08:30:00 | 01:35:44 | 00:00:00 | |
| DJ2DS-15 | 2026-09-01 00:26:01 | 53.09038 | -0.28697 | 49° | 27km/h | 19310m | 5.4m/s | -50.0°C | 3.3% | 0hPa | 2.7V | 00:00:00 | 01:35:46 | 00:00:00 | |
| DM0DOS-11 | 2026-09-01 00:25:52 | 53.08987 | -0.28817 | 41° | 27km/h | 19257m | 4.6m/s | -50.2°C | 3.4% | 0hPa | 2.7V | 08:30:00 | 01:35:34 | 00:00:00 | |
| DM0DOS-11 | 2026-09-01 00:25:42 | 53.08956 | -0.28886 | 41° | 18km/h | 19210m | 4.7m/s | -50.1°C | 3.4% | 0hPa | 2.6V | 08:30:00 | 01:35:24 | 00:00:00 | |
| DJ2DS-15 | 2026-09-01 00:25:41 | 53.08960 | -0.28875 | 76° | 20km/h | 19220m | 3.4m/s | -50.1°C | 3.3% | 0hPa | 2.7V | 00:00:00 | 01:35:26 | 00:00:00 | |
| DM0DOS-11 | 2026-09-01 00:25:34 | 53.08918 | -0.28935 | 66° | 16km/h | 19165m | 3.9m/s | -50°C | 3.4% | 0hPa | 2.6V | 08:30:00 | 01:35:14 | 00:00:00 | |
| DM0DOS-11 | 2026-09-01 00:25:24 | 53.08883 | -0.29017 | 54° | 24km/h | 19117m | 5.1m/s | -49.8°C | 3.3% | 0hPa | 2.7V | 08:30:00 | 01:35:04 | 00:00:00 | |
| DJ2DS-15 | 2026-09-01 00:25:21 | 53.08891 | -0.28998 | 53° | 26km/h | 19127m | 4.1m/s | -49.9°C | 3.4% | 0hPa | 2.6V | 00:00:00 | 01:35:06 | 00:00:00 | |
| DM0DOS-11 | 2026-09-01 00:25:14 | 53.08850 | -0.29103 | 46° | 24km/h | 19070m | 4.6m/s | -49.6°C | 3.3% | 0hPa | 2.6V | 08:30:00 | 01:34:54 | 00:00:00 | |
| DM0DOS-11 | 2026-09-01 00:25:04 | 53.08815 | -0.29186 | 59° | 22km/h | 19023m | 5.6m/s | -49.4°C | 3.3% | 0hPa | 2.7V | 08:30:00 | 01:34:44 | 00:00:00 | |
| DJ2DS-15 | 2026-09-01 00:25:01 | 53.08821 | -0.29168 | 63° | 22km/h | 19033m | 4.2m/s | -49.4°C | 3.3% | 0hPa | 2.6V | 00:00:00 | 01:34:46 | 00:00:00 | |
| DM0DOS-11 | 2026-09-01 00:24:53 | 53.08787 | -0.29262 | 52° | 22km/h | 18977m | 4.5m/s | -49.1°C | 3.2% | 0hPa | 2.6V | 08:30:00 | 01:34:34 | 00:00:00 | |
| DM0DOS-11 | 2026-09-01 00:24:43 | 53.08758 | -0.29334 | 55° | 22km/h | 18931m | 4.5m/s | -49°C | 3.2% | 0hPa | 2.7V | 08:30:00 | 01:34:24 | 00:00:00 | |
| DJ2DS-15 | 2026-09-01 00:24:40 | 53.08761 | -0.29327 | 54° | 18km/h | 18936m | 4.8m/s | -48.9°C | 3.2% | 0hPa | 2.6V | 00:00:00 | 01:34:25 | 08:30:00 | |
| DM0DOS-11 | 2026-09-01 00:24:33 | 53.08738 | -0.29390 | 72° | 16km/h | 18886m | 4m/s | -49.1°C | 3.2% | 0hPa | 2.6V | 08:30:00 | 01:34:14 | 00:00:00 | |
| DM0DOS-11 | 2026-09-01 00:24:23 | 53.08715 | -0.29460 | 72° | 20km/h | 18840m | 5.3m/s | -48.9°C | 3.1% | 0hPa | 2.6V | 08:30:00 | 01:34:04 | 00:00:00 | |
| DJ2DS-15 | 2026-09-01 00:24:20 | 53.08717 | -0.29451 | 65° | 27km/h | 18845m | 4.7m/s | -48.9°C | 3.1% | 0hPa | 2.7V | 00:00:00 | 01:34:05 | 00:00:00 | |
| DM0DOS-11 | 2026-09-01 00:24:13 | 53.08698 | -0.29562 | 70° | 26km/h | 18792m | 3.8m/s | -49.4°C | 3.1% | 0hPa | 2.7V | 08:30:00 | 01:33:54 | 00:00:00 | |
| DM0DOS-11 | 2026-09-01 00:24:03 | 53.08685 | -0.29698 | 78° | 38km/h | 18747m | 3.3m/s | -49.5°C | 3.2% | 0hPa | 2.6V | 08:30:00 | 01:33:44 | 00:00:00 | |
| DJ2DS-15 | 2026-09-01 00:24:00 | 53.08686 | -0.29682 | 83° | 35km/h | 18752m | 5.0m/s | -49.4°C | 3.1% | 0hPa | 2.7V | 00:00:00 | 01:33:45 | 00:00:00 | |
| DM0DOS-11 | 2026-09-01 00:23:53 | 53.08661 | -0.29834 | 67° | 33km/h | 18703m | 4.7m/s | -50°C | 3.3% | 0hPa | 2.7V | 08:30:00 | 01:33:34 | 00:00:00 | |
| DM0DOS-11 | 2026-09-01 00:23:42 | 53.08634 | -0.29980 | 75° | 40km/h | 18660m | 4.8m/s | -50°C | 3.3% | 0hPa | 2.6V | 08:30:00 | 01:33:24 | 00:00:00 | |
| DJ2DS-15 | 2026-09-01 00:23:40 | 53.08636 | -0.29964 | 75° | 37km/h | 18664m | 4.3m/s | -49.9°C | 3.3% | 0hPa | 2.6V | 00:00:00 | 01:33:25 | 00:00:00 | |
| DM0DOS-11 | 2026-09-01 00:23:32 | 53.08617 | -0.30135 | 74° | 37km/h | 18616m | 4.5m/s | -50.4°C | 3.4% | 0hPa | 2.7V | 08:30:00 | 01:33:14 | 00:00:00 | |
| DJ2DS-15 | 2026-09-01 00:23:20 | 53.08591 | -0.30264 | 70° | 31km/h | 18575m | 4.8m/s | -50.2°C | 3.3% | 0hPa | 2.6V | 00:00:00 | 01:33:05 | 00:00:00 | |
| DM0DOS-11 | 2026-09-01 00:23:05 | 53.08564 | -0.30478 | 80° | 29km/h | 18503m | 5.3m/s | -50.5°C | 3.3% | 0hPa | 2.6V | 08:30:00 | 01:32:49 | 00:00:00 | |
| DJ2DS-15 | 2026-09-01 00:23:00 | 53.08562 | -0.30523 | 86° | 33km/h | 18485m | 3.9m/s | -50.4°C | 3.4% | 0hPa | 2.7V | 00:00:00 | 01:32:45 | 00:00:00 | |
| DM0DOS-11 | 2026-09-01 00:22:59 | 53.08568 | -0.30608 | 95° | 37km/h | 18457m | 3.7m/s | -50.4°C | 3.4% | 0hPa | 2.7V | 08:30:00 | 01:32:39 | 00:00:00 | |
| DM0DOS-11 | 2026-09-01 00:22:41 | 53.08568 | -0.30814 | 92° | 29km/h | 18391m | 4.5m/s | -50.5°C | 3.3% | 0hPa | 2.7V | 08:30:00 | 01:32:24 | 00:00:00 | |
| DJ2DS-15 | 2026-09-01 00:22:40 | 53.08568 | -0.30802 | 87° | 35km/h | 18395m | 3.8m/s | -50.4°C | 3.3% | 0hPa | 2.7V | 00:00:00 | 01:32:25 | 00:00:00 | |
| DJ2DS-15 | 2026-09-01 00:22:20 | 53.08564 | -0.31092 | 80° | 35km/h | 18299m | 4.6m/s | 0°C | 0% | 0hPa | 2.7V | 00:00:00 | 01:32:05 | 00:00:00 | |
| DM0DOS-11 | 2026-09-01 00:22:16 | 53.08549 | -0.31223 | 72° | 35km/h | 18254m | 5.5m/s | -51°C | 3.4% | 0hPa | 2.7V | 08:30:00 | 01:31:56 | 00:00:00 | |
| DM0DOS-11 | 2026-09-01 00:22:06 | 53.08526 | -0.31356 | 70° | 35km/h | 18203m | 5.3m/s | -51°C | 3.4% | 0hPa | 2.6V | 08:30:00 | 01:31:46 | 00:00:00 | |
| DJ2DS-15 | 2026-09-01 00:22:00 | 53.08523 | -0.31370 | 74° | 40km/h | 18198m | 4.5m/s | 0°C | 0% | 0hPa | 2.7V | 00:00:00 | 01:31:45 | 00:00:00 | |
| DM0DOS-11 | 2026-09-01 00:21:55 | 53.08507 | -0.31506 | 80° | 37km/h | 18152m | 6m/s | -51.2°C | 3.5% | 0hPa | 2.7V | 08:30:00 | 01:31:36 | 00:00:00 | |
| DM0DOS-11 | 2026-09-01 00:21:45 | 53.08486 | -0.31680 | 70° | 42km/h | 18101m | 6.1m/s | -51°C | 3.4% | 0hPa | 2.6V | 08:30:00 | 01:31:26 | 00:00:00 | |
| DJ2DS-15 | 2026-09-01 00:21:40 | 53.08482 | -0.31697 | 70° | 42km/h | 18096m | 5.2m/s | 0°C | 0% | 0hPa | 2.6V | 00:00:00 | 01:31:25 | 00:00:00 | |
| DM0DOS-11 | 2026-09-01 00:21:35 | 53.08452 | -0.31846 | 72° | 40km/h | 18051m | 4.2m/s | -51.1°C | 3.5% | 0hPa | 2.6V | 08:30:00 | 01:31:16 | 00:00:00 | |
| DM0DOS-11 | 2026-09-01 00:21:20 | 53.08393 | -0.32055 | 64° | 44km/h | 17987m | 5.3m/s | -51.3°C | 3.5% | 0hPa | 2.6V | 08:30:00 | 01:31:03 | 00:00:00 | |
| DM0DOS-11 | 2026-09-01 00:21:15 | 53.08355 | -0.32191 | 66° | 33km/h | 17936m | 5.1m/s | -51°C | 3.5% | 0hPa | 2.7V | 08:30:00 | 01:30:53 | 00:00:00 | |
| DM0DOS-11 | 2026-09-01 00:21:01 | 53.08334 | -0.32338 | 78° | 33km/h | 17885m | 4.5m/s | -51°C | 3.5% | 0hPa | 2.6V | 08:30:00 | 01:30:43 | 00:00:00 | |
| DM0DOS-11 | 2026-09-01 00:20:42 | 53.08327 | -0.32608 | 94° | 31km/h | 17784m | 4.7m/s | -50.9°C | 3.4% | 0hPa | 2.6V | 08:30:00 | 01:30:22 | 00:00:00 | |
| DM0DOS-11 | 2026-09-01 00:20:30 | 53.08329 | -0.32748 | 90° | 40km/h | 17738m | 3.6m/s | -50.6°C | 3.5% | 0hPa | 2.6V | 08:30:00 | 01:30:12 | 00:00:00 | |
| DM0DOS-11 | 2026-09-01 00:20:19 | 53.08324 | -0.32917 | 92° | 42km/h | 17691m | 4.2m/s | -50.8°C | 3.4% | 0hPa | 2.7V | 08:30:00 | 01:30:02 | 00:00:00 | |
| DM0DOS-11 | 2026-09-01 00:20:11 | 53.08327 | -0.33103 | 88° | 49km/h | 17644m | 4.3m/s | -50.9°C | 3.5% | 0hPa | 2.6V | 08:30:00 | 01:29:52 | 00:00:00 | |
| DM0DOS-11 | 2026-09-01 00:19:59 | 53.08324 | -0.33294 | 86° | 46km/h | 17600m | 5.2m/s | -50.9°C | 3.5% | 0hPa | 2.7V | 08:30:00 | 01:29:42 | 00:00:00 | |
| DM0DOS-11 | 2026-09-01 00:19:51 | 53.08310 | -0.33479 | 74° | 40km/h | 17556m | 4m/s | -50.6°C | 3.5% | 0hPa | 2.6V | 08:30:00 | 01:29:32 | 00:00:00 | |
| DM0DOS-11 | 2026-09-01 00:19:40 | 53.08290 | -0.33642 | 78° | 44km/h | 17514m | 4.3m/s | -50.2°C | 3.4% | 0hPa | 2.6V | 08:30:00 | 01:29:22 | 00:00:00 | |
| DM0DOS-11 | 2026-09-01 00:19:28 | 53.08268 | -0.33816 | 78° | 40km/h | 17470m | 5.1m/s | -50°C | 3.3% | 0hPa | 2.7V | 08:30:00 | 01:29:12 | 00:00:00 | |
| DM0DOS-11 | 2026-09-01 00:19:18 | 53.08244 | -0.33976 | 79° | 38km/h | 17425m | 3.2m/s | -49.8°C | 3.3% | 0hPa | 2.7V | 08:30:00 | 01:29:02 | 00:00:00 | |
| DM0DOS-11 | 2026-09-01 00:19:11 | 53.08217 | -0.34130 | 73° | 38km/h | 17382m | 4.3m/s | -49.8°C | 3.2% | 0hPa | 2.6V | 08:30:00 | 01:28:52 | 00:00:00 | |
| DM0DOS-11 | 2026-09-01 00:19:01 | 53.08179 | -0.34307 | 70° | 42km/h | 17336m | 4.2m/s | -50.5°C | 0% | 0hPa | 2.7V | 08:30:00 | 01:28:42 | 00:00:00 | |
| DM0DOS-11 | 2026-09-01 00:18:51 | 53.08147 | -0.34471 | 67° | 44km/h | 17293m | 3.9m/s | -50.6°C | 0% | 0hPa | 2.6V | 08:30:00 | 01:28:32 | 00:00:00 | |
| DM0DOS-11 | 2026-09-01 00:18:40 | 53.08105 | -0.34641 | 67° | 47km/h | 17249m | 4.1m/s | 0°C | 0% | 0hPa | 2.7V | 00:00:00 | 01:28:22 | 00:00:00 | |
| DM0DOS-11 | 2026-09-01 00:18:30 | 53.08056 | -0.34812 | 58° | 49km/h | 17206m | 4m/s | 0°C | 0% | 0hPa | 2.7V | 00:00:00 | 01:28:12 | 00:00:00 | |
| DM0DOS-11 | 2026-09-01 00:18:08 | 53.07929 | -0.35152 | 59° | 37km/h | 17110m | 4.3m/s | 0°C | 0% | 0hPa | 2.6V | 00:00:00 | 01:27:50 | 00:00:00 | |
| DM0DOS-11 | 2026-09-01 00:15:25 | 53.07584 | -0.37745 | 73° | 55km/h | 16342m | 4.6m/s | 0°C | 0% | 0hPa | 2.7V | 00:00:00 | 01:25:05 | 00:00:00 | |
| DM0DOS-11 | 2026-09-01 00:15:08 | 53.07518 | -0.38099 | 72° | 51km/h | 16267m | 4.8m/s | 0°C | 0% | 0hPa | 2.6V | 00:00:00 | 01:24:48 | 00:00:00 | |
| DM0DOS-11 | 2026-09-01 00:14:57 | 53.07488 | -0.38326 | 82° | 47km/h | 16218m | 5.5m/s | 0°C | 0% | 0hPa | 2.7V | 00:00:00 | 01:24:37 | 00:00:00 | |
| DM0DOS-11 | 2026-09-01 00:14:46 | 53.07475 | -0.38554 | 92° | 46km/h | 16168m | 4.5m/s | 0°C | 0% | 0hPa | 2.7V | 00:00:00 | 01:24:26 | 00:00:00 | |
| DM0DOS-11 | 2026-09-01 00:14:34 | 53.07476 | -0.38751 | 92° | 49km/h | 16124m | 5.4m/s | 0°C | 0% | 0hPa | 2.6V | 00:00:00 | 01:24:16 | 00:00:00 | |
| DM0DOS-11 | 2026-09-01 00:13:59 | 53.07445 | -0.39513 | 83° | 47km/h | 15969m | 4.1m/s | 0°C | 0% | 0hPa | 2.7V | 00:00:00 | 01:23:41 | 00:00:00 |